<?xml version="1.0" encoding="UTF-8" standalone="no" ?>
<gpx xmlns="http://www.topografix.com/GPX/1/1" xmlns:xsi="http://www.w3.org/2001/XMLSchema-instance" xsi:schemaLocation="http://www.topografix.com/GPX/1/1 http://www.topografix.com/GPX/1/1/gpx.xsd" version="1.1" creator="VisuGPX - https://www.visugpx.com">
  <metadata>
    <name>raid_2023_5eme_etape</name>
    <desc><![CDATA[Essai adaptation trace Open Runner "raid_2023_5eme_etape-16733769-1711015129-631"]]></desc>
  </metadata>
  <trk>
    <name><![CDATA[raid 2023 5eme etape-16733769]]></name>
    <trkseg>
      <trkpt lat="45.41774" lon="0.92136">
        <ele>254</ele>
        <time>2024-03-21T09:58:49Z</time>
      </trkpt>
      <trkpt lat="45.41784" lon="0.92142">
        <ele>254</ele>
        <time>2024-03-21T09:58:51Z</time>
      </trkpt>
      <trkpt lat="45.41789" lon="0.92148">
        <ele>253</ele>
        <time>2024-03-21T09:58:52Z</time>
      </trkpt>
      <trkpt lat="45.41773" lon="0.9217">
        <ele>253</ele>
        <time>2024-03-21T09:58:56Z</time>
      </trkpt>
      <trkpt lat="45.41768" lon="0.92181">
        <ele>252</ele>
        <time>2024-03-21T09:58:58Z</time>
      </trkpt>
      <trkpt lat="45.41766" lon="0.92191">
        <ele>252</ele>
        <time>2024-03-21T09:58:59Z</time>
      </trkpt>
      <trkpt lat="45.41896" lon="0.9223">
        <ele>250</ele>
        <time>2024-03-21T09:59:23Z</time>
      </trkpt>
      <trkpt lat="45.41911" lon="0.9223">
        <ele>250</ele>
        <time>2024-03-21T09:59:25Z</time>
      </trkpt>
      <trkpt lat="45.4192" lon="0.92236">
        <ele>250</ele>
        <time>2024-03-21T09:59:27Z</time>
      </trkpt>
      <trkpt lat="45.41939" lon="0.92254">
        <ele>250</ele>
        <time>2024-03-21T09:59:31Z</time>
      </trkpt>
      <trkpt lat="45.41941" lon="0.92276">
        <ele>251</ele>
        <time>2024-03-21T09:59:34Z</time>
      </trkpt>
      <trkpt lat="45.41938" lon="0.92283">
        <ele>251</ele>
        <time>2024-03-21T09:59:35Z</time>
      </trkpt>
      <trkpt lat="45.41937" lon="0.92294">
        <ele>251</ele>
        <time>2024-03-21T09:59:36Z</time>
      </trkpt>
      <trkpt lat="45.41938" lon="0.92299">
        <ele>251</ele>
        <time>2024-03-21T09:59:37Z</time>
      </trkpt>
      <trkpt lat="45.41942" lon="0.92308">
        <ele>251</ele>
        <time>2024-03-21T09:59:38Z</time>
      </trkpt>
      <trkpt lat="45.41948" lon="0.92311">
        <ele>251</ele>
        <time>2024-03-21T09:59:39Z</time>
      </trkpt>
      <trkpt lat="45.41958" lon="0.92307">
        <ele>252</ele>
        <time>2024-03-21T09:59:41Z</time>
      </trkpt>
      <trkpt lat="45.41963" lon="0.92299">
        <ele>252</ele>
        <time>2024-03-21T09:59:43Z</time>
      </trkpt>
      <trkpt lat="45.41978" lon="0.92295">
        <ele>252</ele>
        <time>2024-03-21T09:59:45Z</time>
      </trkpt>
      <trkpt lat="45.42241" lon="0.92555">
        <ele>255</ele>
        <time>2024-03-21T10:00:42Z</time>
      </trkpt>
      <trkpt lat="45.42244" lon="0.9255">
        <ele>255</ele>
        <time>2024-03-21T10:00:43Z</time>
      </trkpt>
      <trkpt lat="45.42256" lon="0.92538">
        <ele>254</ele>
        <time>2024-03-21T10:00:46Z</time>
      </trkpt>
      <trkpt lat="45.42266" lon="0.92538">
        <ele>253</ele>
        <time>2024-03-21T10:00:47Z</time>
      </trkpt>
      <trkpt lat="45.42279" lon="0.92542">
        <ele>253</ele>
        <time>2024-03-21T10:00:50Z</time>
      </trkpt>
      <trkpt lat="45.42324" lon="0.92546">
        <ele>251</ele>
        <time>2024-03-21T10:00:58Z</time>
      </trkpt>
      <trkpt lat="45.42337" lon="0.92542">
        <ele>250</ele>
        <time>2024-03-21T10:01:00Z</time>
      </trkpt>
      <trkpt lat="45.42342" lon="0.92534">
        <ele>250</ele>
        <time>2024-03-21T10:01:02Z</time>
      </trkpt>
      <trkpt lat="45.42346" lon="0.92521">
        <ele>250</ele>
        <time>2024-03-21T10:01:03Z</time>
      </trkpt>
      <trkpt lat="45.42356" lon="0.9245">
        <ele>248</ele>
        <time>2024-03-21T10:01:12Z</time>
      </trkpt>
      <trkpt lat="45.42363" lon="0.92423">
        <ele>247</ele>
        <time>2024-03-21T10:01:16Z</time>
      </trkpt>
      <trkpt lat="45.42367" lon="0.9241">
        <ele>247</ele>
        <time>2024-03-21T10:01:18Z</time>
      </trkpt>
      <trkpt lat="45.42384" lon="0.92383">
        <ele>246</ele>
        <time>2024-03-21T10:01:22Z</time>
      </trkpt>
      <trkpt lat="45.42392" lon="0.92374">
        <ele>246</ele>
        <time>2024-03-21T10:01:24Z</time>
      </trkpt>
      <trkpt lat="45.4241" lon="0.92362">
        <ele>246</ele>
        <time>2024-03-21T10:01:28Z</time>
      </trkpt>
      <trkpt lat="45.42434" lon="0.92354">
        <ele>247</ele>
        <time>2024-03-21T10:01:32Z</time>
      </trkpt>
      <trkpt lat="45.42503" lon="0.9235">
        <ele>248</ele>
        <time>2024-03-21T10:01:44Z</time>
      </trkpt>
      <trkpt lat="45.42527" lon="0.92346">
        <ele>249</ele>
        <time>2024-03-21T10:01:49Z</time>
      </trkpt>
      <trkpt lat="45.42736" lon="0.92275">
        <ele>246</ele>
        <time>2024-03-21T10:02:27Z</time>
      </trkpt>
      <trkpt lat="45.42767" lon="0.92263">
        <ele>246</ele>
        <time>2024-03-21T10:02:33Z</time>
      </trkpt>
      <trkpt lat="45.4279" lon="0.92246">
        <ele>247</ele>
        <time>2024-03-21T10:02:37Z</time>
      </trkpt>
      <trkpt lat="45.42838" lon="0.922">
        <ele>248</ele>
        <time>2024-03-21T10:02:47Z</time>
      </trkpt>
      <trkpt lat="45.42856" lon="0.92189">
        <ele>249</ele>
        <time>2024-03-21T10:02:51Z</time>
      </trkpt>
      <trkpt lat="45.42882" lon="0.92181">
        <ele>251</ele>
        <time>2024-03-21T10:02:56Z</time>
      </trkpt>
      <trkpt lat="45.4291" lon="0.92174">
        <ele>252</ele>
        <time>2024-03-21T10:03:01Z</time>
      </trkpt>
      <trkpt lat="45.42958" lon="0.92175">
        <ele>254</ele>
        <time>2024-03-21T10:03:09Z</time>
      </trkpt>
      <trkpt lat="45.42969" lon="0.92177">
        <ele>254</ele>
        <time>2024-03-21T10:03:11Z</time>
      </trkpt>
      <trkpt lat="45.43016" lon="0.92194">
        <ele>257</ele>
        <time>2024-03-21T10:03:20Z</time>
      </trkpt>
      <trkpt lat="45.43041" lon="0.92198">
        <ele>257</ele>
        <time>2024-03-21T10:03:24Z</time>
      </trkpt>
      <trkpt lat="45.43075" lon="0.92195">
        <ele>258</ele>
        <time>2024-03-21T10:03:30Z</time>
      </trkpt>
      <trkpt lat="45.43429" lon="0.92131">
        <ele>246</ele>
        <time>2024-03-21T10:04:34Z</time>
      </trkpt>
      <trkpt lat="45.43473" lon="0.92122">
        <ele>246</ele>
        <time>2024-03-21T10:04:42Z</time>
      </trkpt>
      <trkpt lat="45.43491" lon="0.92113">
        <ele>246</ele>
        <time>2024-03-21T10:04:45Z</time>
      </trkpt>
      <trkpt lat="45.43514" lon="0.92096">
        <ele>246</ele>
        <time>2024-03-21T10:04:50Z</time>
      </trkpt>
      <trkpt lat="45.43593" lon="0.92027">
        <ele>247</ele>
        <time>2024-03-21T10:05:06Z</time>
      </trkpt>
      <trkpt lat="45.43609" lon="0.92018">
        <ele>247</ele>
        <time>2024-03-21T10:05:09Z</time>
      </trkpt>
      <trkpt lat="45.43629" lon="0.92014">
        <ele>247</ele>
        <time>2024-03-21T10:05:13Z</time>
      </trkpt>
      <trkpt lat="45.43646" lon="0.92017">
        <ele>248</ele>
        <time>2024-03-21T10:05:16Z</time>
      </trkpt>
      <trkpt lat="45.43717" lon="0.92069">
        <ele>251</ele>
        <time>2024-03-21T10:05:30Z</time>
      </trkpt>
      <trkpt lat="45.43732" lon="0.92075">
        <ele>252</ele>
        <time>2024-03-21T10:05:33Z</time>
      </trkpt>
      <trkpt lat="45.43748" lon="0.92077">
        <ele>253</ele>
        <time>2024-03-21T10:05:36Z</time>
      </trkpt>
      <trkpt lat="45.43768" lon="0.92073">
        <ele>254</ele>
        <time>2024-03-21T10:05:39Z</time>
      </trkpt>
      <trkpt lat="45.43829" lon="0.92039">
        <ele>258</ele>
        <time>2024-03-21T10:05:51Z</time>
      </trkpt>
      <trkpt lat="45.43845" lon="0.92032">
        <ele>258</ele>
        <time>2024-03-21T10:05:54Z</time>
      </trkpt>
      <trkpt lat="45.43868" lon="0.92028">
        <ele>258</ele>
        <time>2024-03-21T10:05:58Z</time>
      </trkpt>
      <trkpt lat="45.43884" lon="0.92027">
        <ele>259</ele>
        <time>2024-03-21T10:06:01Z</time>
      </trkpt>
      <trkpt lat="45.43912" lon="0.92039">
        <ele>261</ele>
        <time>2024-03-21T10:06:06Z</time>
      </trkpt>
      <trkpt lat="45.43932" lon="0.92057">
        <ele>263</ele>
        <time>2024-03-21T10:06:10Z</time>
      </trkpt>
      <trkpt lat="45.43953" lon="0.92081">
        <ele>265</ele>
        <time>2024-03-21T10:06:15Z</time>
      </trkpt>
      <trkpt lat="45.4397" lon="0.92087">
        <ele>266</ele>
        <time>2024-03-21T10:06:18Z</time>
      </trkpt>
      <trkpt lat="45.43987" lon="0.92086">
        <ele>267</ele>
        <time>2024-03-21T10:06:21Z</time>
      </trkpt>
      <trkpt lat="45.44003" lon="0.92081">
        <ele>267</ele>
        <time>2024-03-21T10:06:24Z</time>
      </trkpt>
      <trkpt lat="45.44023" lon="0.92068">
        <ele>268</ele>
        <time>2024-03-21T10:06:28Z</time>
      </trkpt>
      <trkpt lat="45.44041" lon="0.92052">
        <ele>270</ele>
        <time>2024-03-21T10:06:32Z</time>
      </trkpt>
      <trkpt lat="45.44061" lon="0.9203">
        <ele>272</ele>
        <time>2024-03-21T10:06:36Z</time>
      </trkpt>
      <trkpt lat="45.44071" lon="0.92009">
        <ele>273</ele>
        <time>2024-03-21T10:06:40Z</time>
      </trkpt>
      <trkpt lat="45.44075" lon="0.91989">
        <ele>274</ele>
        <time>2024-03-21T10:06:42Z</time>
      </trkpt>
      <trkpt lat="45.44072" lon="0.91952">
        <ele>272</ele>
        <time>2024-03-21T10:06:47Z</time>
      </trkpt>
      <trkpt lat="45.44073" lon="0.91912">
        <ele>272</ele>
        <time>2024-03-21T10:06:52Z</time>
      </trkpt>
      <trkpt lat="45.44078" lon="0.91875">
        <ele>273</ele>
        <time>2024-03-21T10:06:57Z</time>
      </trkpt>
      <trkpt lat="45.44087" lon="0.91834">
        <ele>273</ele>
        <time>2024-03-21T10:07:02Z</time>
      </trkpt>
      <trkpt lat="45.44102" lon="0.91802">
        <ele>274</ele>
        <time>2024-03-21T10:07:07Z</time>
      </trkpt>
      <trkpt lat="45.44114" lon="0.91785">
        <ele>275</ele>
        <time>2024-03-21T10:07:10Z</time>
      </trkpt>
      <trkpt lat="45.44131" lon="0.91766">
        <ele>276</ele>
        <time>2024-03-21T10:07:14Z</time>
      </trkpt>
      <trkpt lat="45.44167" lon="0.91739">
        <ele>279</ele>
        <time>2024-03-21T10:07:21Z</time>
      </trkpt>
      <trkpt lat="45.44176" lon="0.91724">
        <ele>280</ele>
        <time>2024-03-21T10:07:23Z</time>
      </trkpt>
      <trkpt lat="45.44178" lon="0.91702">
        <ele>281</ele>
        <time>2024-03-21T10:07:26Z</time>
      </trkpt>
      <trkpt lat="45.44169" lon="0.91635">
        <ele>281</ele>
        <time>2024-03-21T10:07:35Z</time>
      </trkpt>
      <trkpt lat="45.44169" lon="0.91615">
        <ele>282</ele>
        <time>2024-03-21T10:07:37Z</time>
      </trkpt>
      <trkpt lat="45.44177" lon="0.91578">
        <ele>283</ele>
        <time>2024-03-21T10:07:42Z</time>
      </trkpt>
      <trkpt lat="45.4422" lon="0.9147">
        <ele>285</ele>
        <time>2024-03-21T10:07:57Z</time>
      </trkpt>
      <trkpt lat="45.44229" lon="0.91456">
        <ele>285</ele>
        <time>2024-03-21T10:08:00Z</time>
      </trkpt>
      <trkpt lat="45.44243" lon="0.91443">
        <ele>286</ele>
        <time>2024-03-21T10:08:03Z</time>
      </trkpt>
      <trkpt lat="45.44255" lon="0.91436">
        <ele>286</ele>
        <time>2024-03-21T10:08:05Z</time>
      </trkpt>
      <trkpt lat="45.44267" lon="0.91433">
        <ele>286</ele>
        <time>2024-03-21T10:08:07Z</time>
      </trkpt>
      <trkpt lat="45.44281" lon="0.91433">
        <ele>286</ele>
        <time>2024-03-21T10:08:10Z</time>
      </trkpt>
      <trkpt lat="45.44302" lon="0.91438">
        <ele>285</ele>
        <time>2024-03-21T10:08:14Z</time>
      </trkpt>
      <trkpt lat="45.44316" lon="0.91449">
        <ele>285</ele>
        <time>2024-03-21T10:08:16Z</time>
      </trkpt>
      <trkpt lat="45.44345" lon="0.91487">
        <ele>286</ele>
        <time>2024-03-21T10:08:23Z</time>
      </trkpt>
      <trkpt lat="45.44428" lon="0.91631">
        <ele>282</ele>
        <time>2024-03-21T10:08:47Z</time>
      </trkpt>
      <trkpt lat="45.44452" lon="0.9167">
        <ele>282</ele>
        <time>2024-03-21T10:08:53Z</time>
      </trkpt>
      <trkpt lat="45.44471" lon="0.91694">
        <ele>282</ele>
        <time>2024-03-21T10:08:58Z</time>
      </trkpt>
      <trkpt lat="45.44557" lon="0.91786">
        <ele>276</ele>
        <time>2024-03-21T10:09:17Z</time>
      </trkpt>
      <trkpt lat="45.44575" lon="0.91802">
        <ele>274</ele>
        <time>2024-03-21T10:09:21Z</time>
      </trkpt>
      <trkpt lat="45.44597" lon="0.91814">
        <ele>273</ele>
        <time>2024-03-21T10:09:25Z</time>
      </trkpt>
      <trkpt lat="45.44615" lon="0.9182">
        <ele>273</ele>
        <time>2024-03-21T10:09:28Z</time>
      </trkpt>
      <trkpt lat="45.44634" lon="0.91822">
        <ele>273</ele>
        <time>2024-03-21T10:09:31Z</time>
      </trkpt>
      <trkpt lat="45.44707" lon="0.91816">
        <ele>271</ele>
        <time>2024-03-21T10:09:44Z</time>
      </trkpt>
      <trkpt lat="45.44731" lon="0.91817">
        <ele>271</ele>
        <time>2024-03-21T10:09:49Z</time>
      </trkpt>
      <trkpt lat="45.44748" lon="0.91821">
        <ele>270</ele>
        <time>2024-03-21T10:09:52Z</time>
      </trkpt>
      <trkpt lat="45.44855" lon="0.91859">
        <ele>267</ele>
        <time>2024-03-21T10:10:11Z</time>
      </trkpt>
      <trkpt lat="45.44871" lon="0.91862">
        <ele>266</ele>
        <time>2024-03-21T10:10:14Z</time>
      </trkpt>
      <trkpt lat="45.44892" lon="0.91859">
        <ele>265</ele>
        <time>2024-03-21T10:10:18Z</time>
      </trkpt>
      <trkpt lat="45.44962" lon="0.91823">
        <ele>262</ele>
        <time>2024-03-21T10:10:31Z</time>
      </trkpt>
      <trkpt lat="45.45111" lon="0.91719">
        <ele>249</ele>
        <time>2024-03-21T10:11:01Z</time>
      </trkpt>
      <trkpt lat="45.45149" lon="0.91694">
        <ele>245</ele>
        <time>2024-03-21T10:11:08Z</time>
      </trkpt>
      <trkpt lat="45.45172" lon="0.91673">
        <ele>242</ele>
        <time>2024-03-21T10:11:13Z</time>
      </trkpt>
      <trkpt lat="45.45197" lon="0.91644">
        <ele>242</ele>
        <time>2024-03-21T10:11:19Z</time>
      </trkpt>
      <trkpt lat="45.45246" lon="0.91575">
        <ele>237</ele>
        <time>2024-03-21T10:11:31Z</time>
      </trkpt>
      <trkpt lat="45.45322" lon="0.91409">
        <ele>222</ele>
        <time>2024-03-21T10:11:56Z</time>
      </trkpt>
      <trkpt lat="45.45334" lon="0.91391">
        <ele>221</ele>
        <time>2024-03-21T10:11:59Z</time>
      </trkpt>
      <trkpt lat="45.45349" lon="0.91383">
        <ele>219</ele>
        <time>2024-03-21T10:12:02Z</time>
      </trkpt>
      <trkpt lat="45.45362" lon="0.91381">
        <ele>217</ele>
        <time>2024-03-21T10:12:04Z</time>
      </trkpt>
      <trkpt lat="45.45375" lon="0.91387">
        <ele>216</ele>
        <time>2024-03-21T10:12:07Z</time>
      </trkpt>
      <trkpt lat="45.45497" lon="0.91503">
        <ele>211</ele>
        <time>2024-03-21T10:12:33Z</time>
      </trkpt>
      <trkpt lat="45.4551" lon="0.91509">
        <ele>213</ele>
        <time>2024-03-21T10:12:35Z</time>
      </trkpt>
      <trkpt lat="45.45523" lon="0.9151">
        <ele>215</ele>
        <time>2024-03-21T10:12:37Z</time>
      </trkpt>
      <trkpt lat="45.45535" lon="0.91508">
        <ele>216</ele>
        <time>2024-03-21T10:12:40Z</time>
      </trkpt>
      <trkpt lat="45.45546" lon="0.91498">
        <ele>218</ele>
        <time>2024-03-21T10:12:42Z</time>
      </trkpt>
      <trkpt lat="45.45554" lon="0.91483">
        <ele>220</ele>
        <time>2024-03-21T10:12:44Z</time>
      </trkpt>
      <trkpt lat="45.45562" lon="0.91456">
        <ele>223</ele>
        <time>2024-03-21T10:12:48Z</time>
      </trkpt>
      <trkpt lat="45.45564" lon="0.91437">
        <ele>224</ele>
        <time>2024-03-21T10:12:50Z</time>
      </trkpt>
      <trkpt lat="45.45562" lon="0.91416">
        <ele>225</ele>
        <time>2024-03-21T10:12:53Z</time>
      </trkpt>
      <trkpt lat="45.45557" lon="0.91387">
        <ele>224</ele>
        <time>2024-03-21T10:12:57Z</time>
      </trkpt>
      <trkpt lat="45.45548" lon="0.91357">
        <ele>222</ele>
        <time>2024-03-21T10:13:01Z</time>
      </trkpt>
      <trkpt lat="45.45546" lon="0.91343">
        <ele>222</ele>
        <time>2024-03-21T10:13:02Z</time>
      </trkpt>
      <trkpt lat="45.45548" lon="0.91329">
        <ele>222</ele>
        <time>2024-03-21T10:13:04Z</time>
      </trkpt>
      <trkpt lat="45.45557" lon="0.91306">
        <ele>224</ele>
        <time>2024-03-21T10:13:08Z</time>
      </trkpt>
      <trkpt lat="45.45567" lon="0.91292">
        <ele>226</ele>
        <time>2024-03-21T10:13:10Z</time>
      </trkpt>
      <trkpt lat="45.45581" lon="0.91281">
        <ele>229</ele>
        <time>2024-03-21T10:13:13Z</time>
      </trkpt>
      <trkpt lat="45.45593" lon="0.91275">
        <ele>230</ele>
        <time>2024-03-21T10:13:15Z</time>
      </trkpt>
      <trkpt lat="45.45606" lon="0.91274">
        <ele>232</ele>
        <time>2024-03-21T10:13:17Z</time>
      </trkpt>
      <trkpt lat="45.45623" lon="0.91277">
        <ele>234</ele>
        <time>2024-03-21T10:13:21Z</time>
      </trkpt>
      <trkpt lat="45.45655" lon="0.9129">
        <ele>238</ele>
        <time>2024-03-21T10:13:26Z</time>
      </trkpt>
      <trkpt lat="45.45669" lon="0.91292">
        <ele>240</ele>
        <time>2024-03-21T10:13:29Z</time>
      </trkpt>
      <trkpt lat="45.45686" lon="0.9129">
        <ele>241</ele>
        <time>2024-03-21T10:13:32Z</time>
      </trkpt>
      <trkpt lat="45.45741" lon="0.91271">
        <ele>244</ele>
        <time>2024-03-21T10:13:42Z</time>
      </trkpt>
      <trkpt lat="45.45755" lon="0.91274">
        <ele>244</ele>
        <time>2024-03-21T10:13:45Z</time>
      </trkpt>
      <trkpt lat="45.45769" lon="0.91284">
        <ele>244</ele>
        <time>2024-03-21T10:13:47Z</time>
      </trkpt>
      <trkpt lat="45.45824" lon="0.91381">
        <ele>246</ele>
        <time>2024-03-21T10:14:03Z</time>
      </trkpt>
      <trkpt lat="45.45839" lon="0.91403">
        <ele>247</ele>
        <time>2024-03-21T10:14:07Z</time>
      </trkpt>
      <trkpt lat="45.45877" lon="0.91433">
        <ele>248</ele>
        <time>2024-03-21T10:14:14Z</time>
      </trkpt>
      <trkpt lat="45.459" lon="0.91432">
        <ele>249</ele>
        <time>2024-03-21T10:14:19Z</time>
      </trkpt>
      <trkpt lat="45.45924" lon="0.91426">
        <ele>249</ele>
        <time>2024-03-21T10:14:23Z</time>
      </trkpt>
      <trkpt lat="45.45939" lon="0.91416">
        <ele>250</ele>
        <time>2024-03-21T10:14:26Z</time>
      </trkpt>
      <trkpt lat="45.45957" lon="0.91401">
        <ele>251</ele>
        <time>2024-03-21T10:14:30Z</time>
      </trkpt>
      <trkpt lat="45.45977" lon="0.91375">
        <ele>252</ele>
        <time>2024-03-21T10:14:34Z</time>
      </trkpt>
      <trkpt lat="45.4599" lon="0.91352">
        <ele>254</ele>
        <time>2024-03-21T10:14:38Z</time>
      </trkpt>
      <trkpt lat="45.46004" lon="0.91319">
        <ele>256</ele>
        <time>2024-03-21T10:14:43Z</time>
      </trkpt>
      <trkpt lat="45.46017" lon="0.91276">
        <ele>257</ele>
        <time>2024-03-21T10:14:49Z</time>
      </trkpt>
      <trkpt lat="45.46025" lon="0.91253">
        <ele>258</ele>
        <time>2024-03-21T10:14:52Z</time>
      </trkpt>
      <trkpt lat="45.46067" lon="0.91204">
        <ele>258</ele>
        <time>2024-03-21T10:15:02Z</time>
      </trkpt>
      <trkpt lat="45.4609" lon="0.91179">
        <ele>258</ele>
        <time>2024-03-21T10:15:07Z</time>
      </trkpt>
      <trkpt lat="45.46108" lon="0.91168">
        <ele>257</ele>
        <time>2024-03-21T10:15:10Z</time>
      </trkpt>
      <trkpt lat="45.46125" lon="0.91161">
        <ele>257</ele>
        <time>2024-03-21T10:15:13Z</time>
      </trkpt>
      <trkpt lat="45.46143" lon="0.91158">
        <ele>256</ele>
        <time>2024-03-21T10:15:17Z</time>
      </trkpt>
      <trkpt lat="45.46212" lon="0.91171">
        <ele>252</ele>
        <time>2024-03-21T10:15:29Z</time>
      </trkpt>
      <trkpt lat="45.46238" lon="0.91179">
        <ele>250</ele>
        <time>2024-03-21T10:15:34Z</time>
      </trkpt>
      <trkpt lat="45.46261" lon="0.91195">
        <ele>251</ele>
        <time>2024-03-21T10:15:38Z</time>
      </trkpt>
      <trkpt lat="45.46298" lon="0.91225">
        <ele>253</ele>
        <time>2024-03-21T10:15:46Z</time>
      </trkpt>
      <trkpt lat="45.46309" lon="0.91227">
        <ele>252</ele>
        <time>2024-03-21T10:15:48Z</time>
      </trkpt>
      <trkpt lat="45.46322" lon="0.91225">
        <ele>252</ele>
        <time>2024-03-21T10:15:50Z</time>
      </trkpt>
      <trkpt lat="45.46332" lon="0.91219">
        <ele>252</ele>
        <time>2024-03-21T10:15:52Z</time>
      </trkpt>
      <trkpt lat="45.46343" lon="0.91205">
        <ele>251</ele>
        <time>2024-03-21T10:15:55Z</time>
      </trkpt>
      <trkpt lat="45.46363" lon="0.91172">
        <ele>251</ele>
        <time>2024-03-21T10:16:00Z</time>
      </trkpt>
      <trkpt lat="45.46438" lon="0.91032">
        <ele>249</ele>
        <time>2024-03-21T10:16:22Z</time>
      </trkpt>
      <trkpt lat="45.46449" lon="0.91005">
        <ele>250</ele>
        <time>2024-03-21T10:16:26Z</time>
      </trkpt>
      <trkpt lat="45.46453" lon="0.90978">
        <ele>249</ele>
        <time>2024-03-21T10:16:29Z</time>
      </trkpt>
      <trkpt lat="45.46455" lon="0.90948">
        <ele>249</ele>
        <time>2024-03-21T10:16:33Z</time>
      </trkpt>
      <trkpt lat="45.46454" lon="0.90874">
        <ele>246</ele>
        <time>2024-03-21T10:16:42Z</time>
      </trkpt>
      <trkpt lat="45.46457" lon="0.90848">
        <ele>245</ele>
        <time>2024-03-21T10:16:46Z</time>
      </trkpt>
      <trkpt lat="45.46464" lon="0.90827">
        <ele>245</ele>
        <time>2024-03-21T10:16:49Z</time>
      </trkpt>
      <trkpt lat="45.46472" lon="0.90809">
        <ele>245</ele>
        <time>2024-03-21T10:16:51Z</time>
      </trkpt>
      <trkpt lat="45.46483" lon="0.90791">
        <ele>245</ele>
        <time>2024-03-21T10:16:54Z</time>
      </trkpt>
      <trkpt lat="45.46494" lon="0.90781">
        <ele>245</ele>
        <time>2024-03-21T10:16:57Z</time>
      </trkpt>
      <trkpt lat="45.46508" lon="0.90776">
        <ele>245</ele>
        <time>2024-03-21T10:16:59Z</time>
      </trkpt>
      <trkpt lat="45.46524" lon="0.90778">
        <ele>244</ele>
        <time>2024-03-21T10:17:02Z</time>
      </trkpt>
      <trkpt lat="45.46596" lon="0.9083">
        <ele>244</ele>
        <time>2024-03-21T10:17:16Z</time>
      </trkpt>
      <trkpt lat="45.46617" lon="0.90849">
        <ele>242</ele>
        <time>2024-03-21T10:17:21Z</time>
      </trkpt>
      <trkpt lat="45.46641" lon="0.90877">
        <ele>240</ele>
        <time>2024-03-21T10:17:26Z</time>
      </trkpt>
      <trkpt lat="45.46655" lon="0.90891">
        <ele>240</ele>
        <time>2024-03-21T10:17:29Z</time>
      </trkpt>
      <trkpt lat="45.46671" lon="0.909">
        <ele>239</ele>
        <time>2024-03-21T10:17:32Z</time>
      </trkpt>
      <trkpt lat="45.46698" lon="0.90912">
        <ele>237</ele>
        <time>2024-03-21T10:17:37Z</time>
      </trkpt>
      <trkpt lat="45.4671" lon="0.90922">
        <ele>237</ele>
        <time>2024-03-21T10:17:40Z</time>
      </trkpt>
      <trkpt lat="45.46731" lon="0.90953">
        <ele>239</ele>
        <time>2024-03-21T10:17:45Z</time>
      </trkpt>
      <trkpt lat="45.46741" lon="0.90965">
        <ele>240</ele>
        <time>2024-03-21T10:17:48Z</time>
      </trkpt>
      <trkpt lat="45.4675" lon="0.90973">
        <ele>241</ele>
        <time>2024-03-21T10:17:50Z</time>
      </trkpt>
      <trkpt lat="45.46794" lon="0.90988">
        <ele>237</ele>
        <time>2024-03-21T10:17:58Z</time>
      </trkpt>
      <trkpt lat="45.46806" lon="0.90996">
        <ele>236</ele>
        <time>2024-03-21T10:18:00Z</time>
      </trkpt>
      <trkpt lat="45.46814" lon="0.91008">
        <ele>235</ele>
        <time>2024-03-21T10:18:02Z</time>
      </trkpt>
      <trkpt lat="45.46821" lon="0.91025">
        <ele>235</ele>
        <time>2024-03-21T10:18:04Z</time>
      </trkpt>
      <trkpt lat="45.46845" lon="0.91182">
        <ele>238</ele>
        <time>2024-03-21T10:18:24Z</time>
      </trkpt>
      <trkpt lat="45.46851" lon="0.91199">
        <ele>238</ele>
        <time>2024-03-21T10:18:27Z</time>
      </trkpt>
      <trkpt lat="45.46857" lon="0.9121">
        <ele>237</ele>
        <time>2024-03-21T10:18:29Z</time>
      </trkpt>
      <trkpt lat="45.46864" lon="0.91217">
        <ele>237</ele>
        <time>2024-03-21T10:18:30Z</time>
      </trkpt>
      <trkpt lat="45.46923" lon="0.91236">
        <ele>232</ele>
        <time>2024-03-21T10:18:41Z</time>
      </trkpt>
      <trkpt lat="45.46938" lon="0.91233">
        <ele>232</ele>
        <time>2024-03-21T10:18:44Z</time>
      </trkpt>
      <trkpt lat="45.46944" lon="0.91229">
        <ele>232</ele>
        <time>2024-03-21T10:18:45Z</time>
      </trkpt>
      <trkpt lat="45.46947" lon="0.91222">
        <ele>231</ele>
        <time>2024-03-21T10:18:46Z</time>
      </trkpt>
      <trkpt lat="45.4695" lon="0.91207">
        <ele>230</ele>
        <time>2024-03-21T10:18:48Z</time>
      </trkpt>
      <trkpt lat="45.46951" lon="0.91198">
        <ele>230</ele>
        <time>2024-03-21T10:18:49Z</time>
      </trkpt>
      <trkpt lat="45.46954" lon="0.91176">
        <ele>228</ele>
        <time>2024-03-21T10:18:52Z</time>
      </trkpt>
      <trkpt lat="45.46958" lon="0.91164">
        <ele>227</ele>
        <time>2024-03-21T10:18:53Z</time>
      </trkpt>
      <trkpt lat="45.46965" lon="0.91151">
        <ele>228</ele>
        <time>2024-03-21T10:18:55Z</time>
      </trkpt>
      <trkpt lat="45.47007" lon="0.91107">
        <ele>234</ele>
        <time>2024-03-21T10:19:05Z</time>
      </trkpt>
      <trkpt lat="45.47033" lon="0.91088">
        <ele>235</ele>
        <time>2024-03-21T10:19:10Z</time>
      </trkpt>
      <trkpt lat="45.47059" lon="0.91079">
        <ele>235</ele>
        <time>2024-03-21T10:19:15Z</time>
      </trkpt>
      <trkpt lat="45.47086" lon="0.91078">
        <ele>234</ele>
        <time>2024-03-21T10:19:19Z</time>
      </trkpt>
      <trkpt lat="45.47224" lon="0.91116">
        <ele>237</ele>
        <time>2024-03-21T10:19:44Z</time>
      </trkpt>
      <trkpt lat="45.47242" lon="0.91118">
        <ele>238</ele>
        <time>2024-03-21T10:19:48Z</time>
      </trkpt>
      <trkpt lat="45.47255" lon="0.91117">
        <ele>239</ele>
        <time>2024-03-21T10:19:50Z</time>
      </trkpt>
      <trkpt lat="45.47265" lon="0.91114">
        <ele>240</ele>
        <time>2024-03-21T10:19:52Z</time>
      </trkpt>
      <trkpt lat="45.47285" lon="0.91098">
        <ele>241</ele>
        <time>2024-03-21T10:19:56Z</time>
      </trkpt>
      <trkpt lat="45.47327" lon="0.91045">
        <ele>244</ele>
        <time>2024-03-21T10:20:06Z</time>
      </trkpt>
      <trkpt lat="45.47335" lon="0.91033">
        <ele>244</ele>
        <time>2024-03-21T10:20:08Z</time>
      </trkpt>
      <trkpt lat="45.4734" lon="0.91019">
        <ele>245</ele>
        <time>2024-03-21T10:20:10Z</time>
      </trkpt>
      <trkpt lat="45.47354" lon="0.90958">
        <ele>247</ele>
        <time>2024-03-21T10:20:18Z</time>
      </trkpt>
      <trkpt lat="45.47366" lon="0.90936">
        <ele>248</ele>
        <time>2024-03-21T10:20:21Z</time>
      </trkpt>
      <trkpt lat="45.47374" lon="0.90931">
        <ele>248</ele>
        <time>2024-03-21T10:20:23Z</time>
      </trkpt>
      <trkpt lat="45.47426" lon="0.90906">
        <ele>252</ele>
        <time>2024-03-21T10:20:33Z</time>
      </trkpt>
      <trkpt lat="45.47452" lon="0.90886">
        <ele>253</ele>
        <time>2024-03-21T10:20:38Z</time>
      </trkpt>
      <trkpt lat="45.47552" lon="0.90763">
        <ele>257</ele>
        <time>2024-03-21T10:21:01Z</time>
      </trkpt>
      <trkpt lat="45.47564" lon="0.90754">
        <ele>258</ele>
        <time>2024-03-21T10:21:04Z</time>
      </trkpt>
      <trkpt lat="45.47581" lon="0.90747">
        <ele>259</ele>
        <time>2024-03-21T10:21:07Z</time>
      </trkpt>
      <trkpt lat="45.47596" lon="0.90744">
        <ele>260</ele>
        <time>2024-03-21T10:21:10Z</time>
      </trkpt>
      <trkpt lat="45.4761" lon="0.90745">
        <ele>261</ele>
        <time>2024-03-21T10:21:12Z</time>
      </trkpt>
      <trkpt lat="45.47628" lon="0.90751">
        <ele>262</ele>
        <time>2024-03-21T10:21:15Z</time>
      </trkpt>
      <trkpt lat="45.47655" lon="0.90764">
        <ele>263</ele>
        <time>2024-03-21T10:21:21Z</time>
      </trkpt>
      <trkpt lat="45.47664" lon="0.90766">
        <ele>264</ele>
        <time>2024-03-21T10:21:22Z</time>
      </trkpt>
      <trkpt lat="45.47685" lon="0.90759">
        <ele>264</ele>
        <time>2024-03-21T10:21:26Z</time>
      </trkpt>
      <trkpt lat="45.47693" lon="0.9075">
        <ele>264</ele>
        <time>2024-03-21T10:21:28Z</time>
      </trkpt>
      <trkpt lat="45.47704" lon="0.90736">
        <ele>264</ele>
        <time>2024-03-21T10:21:30Z</time>
      </trkpt>
      <trkpt lat="45.47728" lon="0.90676">
        <ele>265</ele>
        <time>2024-03-21T10:21:39Z</time>
      </trkpt>
      <trkpt lat="45.47738" lon="0.90656">
        <ele>265</ele>
        <time>2024-03-21T10:21:42Z</time>
      </trkpt>
      <trkpt lat="45.47751" lon="0.9064">
        <ele>266</ele>
        <time>2024-03-21T10:21:45Z</time>
      </trkpt>
      <trkpt lat="45.47788" lon="0.90612">
        <ele>265</ele>
        <time>2024-03-21T10:21:53Z</time>
      </trkpt>
      <trkpt lat="45.47798" lon="0.90601">
        <ele>265</ele>
        <time>2024-03-21T10:21:55Z</time>
      </trkpt>
      <trkpt lat="45.47803" lon="0.90587">
        <ele>265</ele>
        <time>2024-03-21T10:21:57Z</time>
      </trkpt>
      <trkpt lat="45.47809" lon="0.90557">
        <ele>266</ele>
        <time>2024-03-21T10:22:01Z</time>
      </trkpt>
      <trkpt lat="45.47814" lon="0.90497">
        <ele>269</ele>
        <time>2024-03-21T10:22:08Z</time>
      </trkpt>
      <trkpt lat="45.47814" lon="0.90478">
        <ele>270</ele>
        <time>2024-03-21T10:22:11Z</time>
      </trkpt>
      <trkpt lat="45.4782" lon="0.90458">
        <ele>270</ele>
        <time>2024-03-21T10:22:13Z</time>
      </trkpt>
      <trkpt lat="45.47829" lon="0.90442">
        <ele>271</ele>
        <time>2024-03-21T10:22:16Z</time>
      </trkpt>
      <trkpt lat="45.47843" lon="0.90437">
        <ele>271</ele>
        <time>2024-03-21T10:22:18Z</time>
      </trkpt>
      <trkpt lat="45.47852" lon="0.90438">
        <ele>271</ele>
        <time>2024-03-21T10:22:20Z</time>
      </trkpt>
      <trkpt lat="45.47888" lon="0.90464">
        <ele>270</ele>
        <time>2024-03-21T10:22:27Z</time>
      </trkpt>
      <trkpt lat="45.47899" lon="0.90467">
        <ele>270</ele>
        <time>2024-03-21T10:22:29Z</time>
      </trkpt>
      <trkpt lat="45.47906" lon="0.90466">
        <ele>270</ele>
        <time>2024-03-21T10:22:30Z</time>
      </trkpt>
      <trkpt lat="45.47914" lon="0.90462">
        <ele>270</ele>
        <time>2024-03-21T10:22:32Z</time>
      </trkpt>
      <trkpt lat="45.47927" lon="0.90447">
        <ele>270</ele>
        <time>2024-03-21T10:22:35Z</time>
      </trkpt>
      <trkpt lat="45.47931" lon="0.90437">
        <ele>270</ele>
        <time>2024-03-21T10:22:36Z</time>
      </trkpt>
      <trkpt lat="45.47933" lon="0.9042">
        <ele>271</ele>
        <time>2024-03-21T10:22:39Z</time>
      </trkpt>
      <trkpt lat="45.47932" lon="0.9035">
        <ele>274</ele>
        <time>2024-03-21T10:22:47Z</time>
      </trkpt>
      <trkpt lat="45.47934" lon="0.9033">
        <ele>275</ele>
        <time>2024-03-21T10:22:50Z</time>
      </trkpt>
      <trkpt lat="45.47941" lon="0.90306">
        <ele>274</ele>
        <time>2024-03-21T10:22:53Z</time>
      </trkpt>
      <trkpt lat="45.47951" lon="0.90296">
        <ele>274</ele>
        <time>2024-03-21T10:22:55Z</time>
      </trkpt>
      <trkpt lat="45.4796" lon="0.90292">
        <ele>274</ele>
        <time>2024-03-21T10:22:57Z</time>
      </trkpt>
      <trkpt lat="45.4797" lon="0.9029">
        <ele>274</ele>
        <time>2024-03-21T10:22:59Z</time>
      </trkpt>
      <trkpt lat="45.47989" lon="0.90291">
        <ele>274</ele>
        <time>2024-03-21T10:23:02Z</time>
      </trkpt>
      <trkpt lat="45.48005" lon="0.90289">
        <ele>274</ele>
        <time>2024-03-21T10:23:05Z</time>
      </trkpt>
      <trkpt lat="45.48014" lon="0.90285">
        <ele>274</ele>
        <time>2024-03-21T10:23:07Z</time>
      </trkpt>
      <trkpt lat="45.48025" lon="0.90273">
        <ele>274</ele>
        <time>2024-03-21T10:23:09Z</time>
      </trkpt>
      <trkpt lat="45.4804" lon="0.9024">
        <ele>275</ele>
        <time>2024-03-21T10:23:14Z</time>
      </trkpt>
      <trkpt lat="45.48047" lon="0.90229">
        <ele>275</ele>
        <time>2024-03-21T10:23:16Z</time>
      </trkpt>
      <trkpt lat="45.48055" lon="0.90221">
        <ele>275</ele>
        <time>2024-03-21T10:23:18Z</time>
      </trkpt>
      <trkpt lat="45.48073" lon="0.90218">
        <ele>275</ele>
        <time>2024-03-21T10:23:21Z</time>
      </trkpt>
      <trkpt lat="45.48095" lon="0.90224">
        <ele>276</ele>
        <time>2024-03-21T10:23:25Z</time>
      </trkpt>
      <trkpt lat="45.48121" lon="0.90237">
        <ele>276</ele>
        <time>2024-03-21T10:23:30Z</time>
      </trkpt>
      <trkpt lat="45.48139" lon="0.90256">
        <ele>276</ele>
        <time>2024-03-21T10:23:34Z</time>
      </trkpt>
      <trkpt lat="45.48156" lon="0.90294">
        <ele>274</ele>
        <time>2024-03-21T10:23:39Z</time>
      </trkpt>
      <trkpt lat="45.48164" lon="0.90302">
        <ele>274</ele>
        <time>2024-03-21T10:23:41Z</time>
      </trkpt>
      <trkpt lat="45.48182" lon="0.90305">
        <ele>273</ele>
        <time>2024-03-21T10:23:44Z</time>
      </trkpt>
      <trkpt lat="45.48196" lon="0.90303">
        <ele>273</ele>
        <time>2024-03-21T10:23:47Z</time>
      </trkpt>
      <trkpt lat="45.48225" lon="0.90293">
        <ele>273</ele>
        <time>2024-03-21T10:23:52Z</time>
      </trkpt>
      <trkpt lat="45.4824" lon="0.90284">
        <ele>274</ele>
        <time>2024-03-21T10:23:55Z</time>
      </trkpt>
      <trkpt lat="45.48246" lon="0.90278">
        <ele>274</ele>
        <time>2024-03-21T10:23:56Z</time>
      </trkpt>
      <trkpt lat="45.48254" lon="0.90259">
        <ele>274</ele>
        <time>2024-03-21T10:23:59Z</time>
      </trkpt>
      <trkpt lat="45.48262" lon="0.90222">
        <ele>276</ele>
        <time>2024-03-21T10:24:04Z</time>
      </trkpt>
      <trkpt lat="45.48266" lon="0.90213">
        <ele>276</ele>
        <time>2024-03-21T10:24:05Z</time>
      </trkpt>
      <trkpt lat="45.4828" lon="0.902">
        <ele>277</ele>
        <time>2024-03-21T10:24:08Z</time>
      </trkpt>
      <trkpt lat="45.48481" lon="0.90147">
        <ele>277</ele>
        <time>2024-03-21T10:24:45Z</time>
      </trkpt>
      <trkpt lat="45.48502" lon="0.9015">
        <ele>277</ele>
        <time>2024-03-21T10:24:48Z</time>
      </trkpt>
      <trkpt lat="45.48553" lon="0.90177">
        <ele>277</ele>
        <time>2024-03-21T10:24:58Z</time>
      </trkpt>
      <trkpt lat="45.48567" lon="0.90182">
        <ele>277</ele>
        <time>2024-03-21T10:25:01Z</time>
      </trkpt>
      <trkpt lat="45.48578" lon="0.90182">
        <ele>277</ele>
        <time>2024-03-21T10:25:02Z</time>
      </trkpt>
      <trkpt lat="45.48662" lon="0.90169">
        <ele>278</ele>
        <time>2024-03-21T10:25:18Z</time>
      </trkpt>
      <trkpt lat="45.48689" lon="0.90178">
        <ele>277</ele>
        <time>2024-03-21T10:25:22Z</time>
      </trkpt>
      <trkpt lat="45.48703" lon="0.90189">
        <ele>277</ele>
        <time>2024-03-21T10:25:25Z</time>
      </trkpt>
      <trkpt lat="45.48725" lon="0.90215">
        <ele>276</ele>
        <time>2024-03-21T10:25:30Z</time>
      </trkpt>
      <trkpt lat="45.48735" lon="0.90222">
        <ele>275</ele>
        <time>2024-03-21T10:25:32Z</time>
      </trkpt>
      <trkpt lat="45.48753" lon="0.90229">
        <ele>275</ele>
        <time>2024-03-21T10:25:36Z</time>
      </trkpt>
      <trkpt lat="45.48864" lon="0.90259">
        <ele>275</ele>
        <time>2024-03-21T10:25:56Z</time>
      </trkpt>
      <trkpt lat="45.4888" lon="0.90259">
        <ele>275</ele>
        <time>2024-03-21T10:25:59Z</time>
      </trkpt>
      <trkpt lat="45.48921" lon="0.90254">
        <ele>275</ele>
        <time>2024-03-21T10:26:06Z</time>
      </trkpt>
      <trkpt lat="45.48971" lon="0.90245">
        <ele>275</ele>
        <time>2024-03-21T10:26:15Z</time>
      </trkpt>
      <trkpt lat="45.49258" lon="0.9023">
        <ele>279</ele>
        <time>2024-03-21T10:27:06Z</time>
      </trkpt>
      <trkpt lat="45.49275" lon="0.90225">
        <ele>279</ele>
        <time>2024-03-21T10:27:09Z</time>
      </trkpt>
      <trkpt lat="45.49298" lon="0.90222">
        <ele>279</ele>
        <time>2024-03-21T10:27:13Z</time>
      </trkpt>
      <trkpt lat="45.49305" lon="0.90221">
        <ele>279</ele>
        <time>2024-03-21T10:27:14Z</time>
      </trkpt>
      <trkpt lat="45.49447" lon="0.902">
        <ele>275</ele>
        <time>2024-03-21T10:27:40Z</time>
      </trkpt>
      <trkpt lat="45.49427" lon="0.90323">
        <ele>276</ele>
        <time>2024-03-21T10:27:56Z</time>
      </trkpt>
      <trkpt lat="45.49427" lon="0.9033">
        <ele>275</ele>
        <time>2024-03-21T10:27:56Z</time>
      </trkpt>
      <trkpt lat="45.4943" lon="0.90338">
        <ele>275</ele>
        <time>2024-03-21T10:27:58Z</time>
      </trkpt>
      <trkpt lat="45.4947" lon="0.9036">
        <ele>277</ele>
        <time>2024-03-21T10:28:05Z</time>
      </trkpt>
      <trkpt lat="45.4956" lon="0.90395">
        <ele>278</ele>
        <time>2024-03-21T10:28:22Z</time>
      </trkpt>
      <trkpt lat="45.49719" lon="0.90463">
        <ele>277</ele>
        <time>2024-03-21T10:28:51Z</time>
      </trkpt>
      <trkpt lat="45.49771" lon="0.90484">
        <ele>278</ele>
        <time>2024-03-21T10:29:01Z</time>
      </trkpt>
      <trkpt lat="45.498" lon="0.90496">
        <ele>278</ele>
        <time>2024-03-21T10:29:06Z</time>
      </trkpt>
      <trkpt lat="45.49867" lon="0.90558">
        <ele>278</ele>
        <time>2024-03-21T10:29:21Z</time>
      </trkpt>
      <trkpt lat="45.4989" lon="0.90576">
        <ele>277</ele>
        <time>2024-03-21T10:29:25Z</time>
      </trkpt>
      <trkpt lat="45.49919" lon="0.9059">
        <ele>277</ele>
        <time>2024-03-21T10:29:31Z</time>
      </trkpt>
      <trkpt lat="45.49926" lon="0.90592">
        <ele>277</ele>
        <time>2024-03-21T10:29:32Z</time>
      </trkpt>
      <trkpt lat="45.49935" lon="0.90584">
        <ele>276</ele>
        <time>2024-03-21T10:29:34Z</time>
      </trkpt>
      <trkpt lat="45.49938" lon="0.90579">
        <ele>276</ele>
        <time>2024-03-21T10:29:35Z</time>
      </trkpt>
      <trkpt lat="45.49945" lon="0.90543">
        <ele>275</ele>
        <time>2024-03-21T10:29:39Z</time>
      </trkpt>
      <trkpt lat="45.49951" lon="0.90525">
        <ele>275</ele>
        <time>2024-03-21T10:29:42Z</time>
      </trkpt>
      <trkpt lat="45.49968" lon="0.90498">
        <ele>274</ele>
        <time>2024-03-21T10:29:46Z</time>
      </trkpt>
      <trkpt lat="45.49995" lon="0.90549">
        <ele>274</ele>
        <time>2024-03-21T10:29:54Z</time>
      </trkpt>
      <trkpt lat="45.50047" lon="0.90644">
        <ele>274</ele>
        <time>2024-03-21T10:30:09Z</time>
      </trkpt>
      <trkpt lat="45.50101" lon="0.90716">
        <ele>275</ele>
        <time>2024-03-21T10:30:23Z</time>
      </trkpt>
      <trkpt lat="45.50255" lon="0.90788">
        <ele>279</ele>
        <time>2024-03-21T10:30:51Z</time>
      </trkpt>
      <trkpt lat="45.50298" lon="0.90859">
        <ele>279</ele>
        <time>2024-03-21T10:31:03Z</time>
      </trkpt>
      <trkpt lat="45.50377" lon="0.90905">
        <ele>280</ele>
        <time>2024-03-21T10:31:18Z</time>
      </trkpt>
      <trkpt lat="45.50445" lon="0.9094">
        <ele>280</ele>
        <time>2024-03-21T10:31:31Z</time>
      </trkpt>
      <trkpt lat="45.50477" lon="0.90976">
        <ele>279</ele>
        <time>2024-03-21T10:31:38Z</time>
      </trkpt>
      <trkpt lat="45.50587" lon="0.91197">
        <ele>282</ele>
        <time>2024-03-21T10:32:12Z</time>
      </trkpt>
      <trkpt lat="45.5061" lon="0.91259">
        <ele>283</ele>
        <time>2024-03-21T10:32:21Z</time>
      </trkpt>
      <trkpt lat="45.50663" lon="0.91429">
        <ele>278</ele>
        <time>2024-03-21T10:32:44Z</time>
      </trkpt>
      <trkpt lat="45.508" lon="0.91687">
        <ele>270</ele>
        <time>2024-03-21T10:33:24Z</time>
      </trkpt>
      <trkpt lat="45.50815" lon="0.91725">
        <ele>269</ele>
        <time>2024-03-21T10:33:30Z</time>
      </trkpt>
      <trkpt lat="45.50826" lon="0.91776">
        <ele>268</ele>
        <time>2024-03-21T10:33:37Z</time>
      </trkpt>
      <trkpt lat="45.50826" lon="0.91817">
        <ele>268</ele>
        <time>2024-03-21T10:33:42Z</time>
      </trkpt>
      <trkpt lat="45.50822" lon="0.91843">
        <ele>268</ele>
        <time>2024-03-21T10:33:45Z</time>
      </trkpt>
      <trkpt lat="45.50804" lon="0.91921">
        <ele>265</ele>
        <time>2024-03-21T10:33:55Z</time>
      </trkpt>
      <trkpt lat="45.50802" lon="0.91936">
        <ele>265</ele>
        <time>2024-03-21T10:33:57Z</time>
      </trkpt>
      <trkpt lat="45.50802" lon="0.91963">
        <ele>264</ele>
        <time>2024-03-21T10:34:00Z</time>
      </trkpt>
      <trkpt lat="45.50817" lon="0.92011">
        <ele>263</ele>
        <time>2024-03-21T10:34:07Z</time>
      </trkpt>
      <trkpt lat="45.50834" lon="0.92056">
        <ele>262</ele>
        <time>2024-03-21T10:34:13Z</time>
      </trkpt>
      <trkpt lat="45.50846" lon="0.92101">
        <ele>261</ele>
        <time>2024-03-21T10:34:19Z</time>
      </trkpt>
      <trkpt lat="45.50859" lon="0.92226">
        <ele>261</ele>
        <time>2024-03-21T10:34:35Z</time>
      </trkpt>
      <trkpt lat="45.50862" lon="0.92246">
        <ele>261</ele>
        <time>2024-03-21T10:34:38Z</time>
      </trkpt>
      <trkpt lat="45.50866" lon="0.92266">
        <ele>261</ele>
        <time>2024-03-21T10:34:40Z</time>
      </trkpt>
      <trkpt lat="45.50879" lon="0.92305">
        <ele>262</ele>
        <time>2024-03-21T10:34:46Z</time>
      </trkpt>
      <trkpt lat="45.50894" lon="0.92337">
        <ele>261</ele>
        <time>2024-03-21T10:34:51Z</time>
      </trkpt>
      <trkpt lat="45.50912" lon="0.92382">
        <ele>262</ele>
        <time>2024-03-21T10:34:57Z</time>
      </trkpt>
      <trkpt lat="45.50931" lon="0.92478">
        <ele>267</ele>
        <time>2024-03-21T10:35:09Z</time>
      </trkpt>
      <trkpt lat="45.50933" lon="0.92513">
        <ele>269</ele>
        <time>2024-03-21T10:35:14Z</time>
      </trkpt>
      <trkpt lat="45.50932" lon="0.92543">
        <ele>269</ele>
        <time>2024-03-21T10:35:18Z</time>
      </trkpt>
      <trkpt lat="45.50928" lon="0.92575">
        <ele>269</ele>
        <time>2024-03-21T10:35:22Z</time>
      </trkpt>
      <trkpt lat="45.50921" lon="0.92608">
        <ele>271</ele>
        <time>2024-03-21T10:35:26Z</time>
      </trkpt>
      <trkpt lat="45.50909" lon="0.92653">
        <ele>273</ele>
        <time>2024-03-21T10:35:32Z</time>
      </trkpt>
      <trkpt lat="45.50877" lon="0.92743">
        <ele>279</ele>
        <time>2024-03-21T10:35:44Z</time>
      </trkpt>
      <trkpt lat="45.50868" lon="0.92761">
        <ele>280</ele>
        <time>2024-03-21T10:35:47Z</time>
      </trkpt>
      <trkpt lat="45.50858" lon="0.92776">
        <ele>281</ele>
        <time>2024-03-21T10:35:50Z</time>
      </trkpt>
      <trkpt lat="45.50844" lon="0.92792">
        <ele>282</ele>
        <time>2024-03-21T10:35:53Z</time>
      </trkpt>
      <trkpt lat="45.5083" lon="0.92801">
        <ele>283</ele>
        <time>2024-03-21T10:35:56Z</time>
      </trkpt>
      <trkpt lat="45.50775" lon="0.9281">
        <ele>286</ele>
        <time>2024-03-21T10:36:06Z</time>
      </trkpt>
      <trkpt lat="45.50754" lon="0.92817">
        <ele>287</ele>
        <time>2024-03-21T10:36:09Z</time>
      </trkpt>
      <trkpt lat="45.5074" lon="0.92827">
        <ele>287</ele>
        <time>2024-03-21T10:36:12Z</time>
      </trkpt>
      <trkpt lat="45.50729" lon="0.92846">
        <ele>287</ele>
        <time>2024-03-21T10:36:15Z</time>
      </trkpt>
      <trkpt lat="45.5072" lon="0.92867">
        <ele>288</ele>
        <time>2024-03-21T10:36:18Z</time>
      </trkpt>
      <trkpt lat="45.50716" lon="0.92888">
        <ele>288</ele>
        <time>2024-03-21T10:36:21Z</time>
      </trkpt>
      <trkpt lat="45.50713" lon="0.92923">
        <ele>287</ele>
        <time>2024-03-21T10:36:25Z</time>
      </trkpt>
      <trkpt lat="45.50714" lon="0.9305">
        <ele>286</ele>
        <time>2024-03-21T10:36:41Z</time>
      </trkpt>
      <trkpt lat="45.50708" lon="0.93126">
        <ele>287</ele>
        <time>2024-03-21T10:36:51Z</time>
      </trkpt>
      <trkpt lat="45.50698" lon="0.93218">
        <ele>289</ele>
        <time>2024-03-21T10:37:02Z</time>
      </trkpt>
      <trkpt lat="45.50697" lon="0.9325">
        <ele>289</ele>
        <time>2024-03-21T10:37:06Z</time>
      </trkpt>
      <trkpt lat="45.507" lon="0.9334">
        <ele>294</ele>
        <time>2024-03-21T10:37:18Z</time>
      </trkpt>
      <trkpt lat="45.50697" lon="0.93436">
        <ele>296</ele>
        <time>2024-03-21T10:37:30Z</time>
      </trkpt>
      <trkpt lat="45.5068" lon="0.93515">
        <ele>295</ele>
        <time>2024-03-21T10:37:40Z</time>
      </trkpt>
      <trkpt lat="45.50674" lon="0.93549">
        <ele>295</ele>
        <time>2024-03-21T10:37:44Z</time>
      </trkpt>
      <trkpt lat="45.50673" lon="0.93572">
        <ele>294</ele>
        <time>2024-03-21T10:37:47Z</time>
      </trkpt>
      <trkpt lat="45.50674" lon="0.93595">
        <ele>294</ele>
        <time>2024-03-21T10:37:50Z</time>
      </trkpt>
      <trkpt lat="45.50678" lon="0.93628">
        <ele>293</ele>
        <time>2024-03-21T10:37:54Z</time>
      </trkpt>
      <trkpt lat="45.50707" lon="0.93803">
        <ele>293</ele>
        <time>2024-03-21T10:38:17Z</time>
      </trkpt>
      <trkpt lat="45.5071" lon="0.93845">
        <ele>294</ele>
        <time>2024-03-21T10:38:22Z</time>
      </trkpt>
      <trkpt lat="45.5071" lon="0.93885">
        <ele>294</ele>
        <time>2024-03-21T10:38:27Z</time>
      </trkpt>
      <trkpt lat="45.50702" lon="0.93972">
        <ele>294</ele>
        <time>2024-03-21T10:38:38Z</time>
      </trkpt>
      <trkpt lat="45.50695" lon="0.94176">
        <ele>295</ele>
        <time>2024-03-21T10:39:03Z</time>
      </trkpt>
      <trkpt lat="45.50692" lon="0.94213">
        <ele>294</ele>
        <time>2024-03-21T10:39:08Z</time>
      </trkpt>
      <trkpt lat="45.50686" lon="0.94247">
        <ele>294</ele>
        <time>2024-03-21T10:39:12Z</time>
      </trkpt>
      <trkpt lat="45.50676" lon="0.94278">
        <ele>292</ele>
        <time>2024-03-21T10:39:17Z</time>
      </trkpt>
      <trkpt lat="45.50668" lon="0.94296">
        <ele>291</ele>
        <time>2024-03-21T10:39:19Z</time>
      </trkpt>
      <trkpt lat="45.50652" lon="0.94323">
        <ele>289</ele>
        <time>2024-03-21T10:39:24Z</time>
      </trkpt>
      <trkpt lat="45.50586" lon="0.94395">
        <ele>288</ele>
        <time>2024-03-21T10:39:38Z</time>
      </trkpt>
      <trkpt lat="45.50568" lon="0.9442">
        <ele>288</ele>
        <time>2024-03-21T10:39:43Z</time>
      </trkpt>
      <trkpt lat="45.5055" lon="0.94449">
        <ele>288</ele>
        <time>2024-03-21T10:39:48Z</time>
      </trkpt>
      <trkpt lat="45.50541" lon="0.94472">
        <ele>288</ele>
        <time>2024-03-21T10:39:51Z</time>
      </trkpt>
      <trkpt lat="45.50535" lon="0.94495">
        <ele>289</ele>
        <time>2024-03-21T10:39:54Z</time>
      </trkpt>
      <trkpt lat="45.50531" lon="0.94525">
        <ele>289</ele>
        <time>2024-03-21T10:39:58Z</time>
      </trkpt>
      <trkpt lat="45.50438" lon="0.95609">
        <ele>296</ele>
        <time>2024-03-21T10:42:14Z</time>
      </trkpt>
      <trkpt lat="45.50429" lon="0.95704">
        <ele>288</ele>
        <time>2024-03-21T10:42:26Z</time>
      </trkpt>
      <trkpt lat="45.50431" lon="0.95719">
        <ele>287</ele>
        <time>2024-03-21T10:42:28Z</time>
      </trkpt>
      <trkpt lat="45.50443" lon="0.95731">
        <ele>287</ele>
        <time>2024-03-21T10:42:31Z</time>
      </trkpt>
      <trkpt lat="45.50483" lon="0.95746">
        <ele>289</ele>
        <time>2024-03-21T10:42:38Z</time>
      </trkpt>
      <trkpt lat="45.50535" lon="0.9576">
        <ele>292</ele>
        <time>2024-03-21T10:42:47Z</time>
      </trkpt>
      <trkpt lat="45.50543" lon="0.95773">
        <ele>292</ele>
        <time>2024-03-21T10:42:49Z</time>
      </trkpt>
      <trkpt lat="45.50557" lon="0.95826">
        <ele>288</ele>
        <time>2024-03-21T10:42:57Z</time>
      </trkpt>
      <trkpt lat="45.50607" lon="0.96131">
        <ele>269</ele>
        <time>2024-03-21T10:43:36Z</time>
      </trkpt>
      <trkpt lat="45.50622" lon="0.96195">
        <ele>264</ele>
        <time>2024-03-21T10:43:44Z</time>
      </trkpt>
      <trkpt lat="45.50625" lon="0.96224">
        <ele>262</ele>
        <time>2024-03-21T10:43:48Z</time>
      </trkpt>
      <trkpt lat="45.50622" lon="0.96241">
        <ele>261</ele>
        <time>2024-03-21T10:43:50Z</time>
      </trkpt>
      <trkpt lat="45.50607" lon="0.96263">
        <ele>259</ele>
        <time>2024-03-21T10:43:54Z</time>
      </trkpt>
      <trkpt lat="45.50581" lon="0.96284">
        <ele>257</ele>
        <time>2024-03-21T10:43:59Z</time>
      </trkpt>
      <trkpt lat="45.5056" lon="0.96296">
        <ele>256</ele>
        <time>2024-03-21T10:44:03Z</time>
      </trkpt>
      <trkpt lat="45.50541" lon="0.96303">
        <ele>254</ele>
        <time>2024-03-21T10:44:07Z</time>
      </trkpt>
      <trkpt lat="45.50521" lon="0.96307">
        <ele>253</ele>
        <time>2024-03-21T10:44:10Z</time>
      </trkpt>
      <trkpt lat="45.50504" lon="0.96313">
        <ele>252</ele>
        <time>2024-03-21T10:44:13Z</time>
      </trkpt>
      <trkpt lat="45.50497" lon="0.96318">
        <ele>252</ele>
        <time>2024-03-21T10:44:15Z</time>
      </trkpt>
      <trkpt lat="45.5049" lon="0.96327">
        <ele>252</ele>
        <time>2024-03-21T10:44:16Z</time>
      </trkpt>
      <trkpt lat="45.50471" lon="0.96381">
        <ele>257</ele>
        <time>2024-03-21T10:44:24Z</time>
      </trkpt>
      <trkpt lat="45.50458" lon="0.96403">
        <ele>259</ele>
        <time>2024-03-21T10:44:27Z</time>
      </trkpt>
      <trkpt lat="45.50443" lon="0.96414">
        <ele>260</ele>
        <time>2024-03-21T10:44:30Z</time>
      </trkpt>
      <trkpt lat="45.50423" lon="0.96423">
        <ele>261</ele>
        <time>2024-03-21T10:44:34Z</time>
      </trkpt>
      <trkpt lat="45.50411" lon="0.96425">
        <ele>261</ele>
        <time>2024-03-21T10:44:36Z</time>
      </trkpt>
      <trkpt lat="45.50381" lon="0.96436">
        <ele>263</ele>
        <time>2024-03-21T10:44:42Z</time>
      </trkpt>
      <trkpt lat="45.50371" lon="0.96451">
        <ele>264</ele>
        <time>2024-03-21T10:44:44Z</time>
      </trkpt>
      <trkpt lat="45.50362" lon="0.96475">
        <ele>267</ele>
        <time>2024-03-21T10:44:48Z</time>
      </trkpt>
      <trkpt lat="45.50344" lon="0.96568">
        <ele>272</ele>
        <time>2024-03-21T10:45:00Z</time>
      </trkpt>
      <trkpt lat="45.50345" lon="0.96597">
        <ele>273</ele>
        <time>2024-03-21T10:45:03Z</time>
      </trkpt>
      <trkpt lat="45.50348" lon="0.96615">
        <ele>274</ele>
        <time>2024-03-21T10:45:06Z</time>
      </trkpt>
      <trkpt lat="45.50385" lon="0.96785">
        <ele>281</ele>
        <time>2024-03-21T10:45:28Z</time>
      </trkpt>
      <trkpt lat="45.50388" lon="0.96808">
        <ele>282</ele>
        <time>2024-03-21T10:45:31Z</time>
      </trkpt>
      <trkpt lat="45.50392" lon="0.96862">
        <ele>285</ele>
        <time>2024-03-21T10:45:38Z</time>
      </trkpt>
      <trkpt lat="45.50396" lon="0.97024">
        <ele>292</ele>
        <time>2024-03-21T10:45:58Z</time>
      </trkpt>
      <trkpt lat="45.50392" lon="0.9705">
        <ele>294</ele>
        <time>2024-03-21T10:46:01Z</time>
      </trkpt>
      <trkpt lat="45.50336" lon="0.97211">
        <ele>302</ele>
        <time>2024-03-21T10:46:24Z</time>
      </trkpt>
      <trkpt lat="45.5033" lon="0.97238">
        <ele>303</ele>
        <time>2024-03-21T10:46:27Z</time>
      </trkpt>
      <trkpt lat="45.5033" lon="0.97249">
        <ele>303</ele>
        <time>2024-03-21T10:46:28Z</time>
      </trkpt>
      <trkpt lat="45.50336" lon="0.9728">
        <ele>302</ele>
        <time>2024-03-21T10:46:33Z</time>
      </trkpt>
      <trkpt lat="45.50455" lon="0.976">
        <ele>309</ele>
        <time>2024-03-21T10:47:18Z</time>
      </trkpt>
      <trkpt lat="45.50475" lon="0.97658">
        <ele>311</ele>
        <time>2024-03-21T10:47:26Z</time>
      </trkpt>
      <trkpt lat="45.50489" lon="0.97686">
        <ele>313</ele>
        <time>2024-03-21T10:47:30Z</time>
      </trkpt>
      <trkpt lat="45.50503" lon="0.9771">
        <ele>313</ele>
        <time>2024-03-21T10:47:34Z</time>
      </trkpt>
      <trkpt lat="45.50523" lon="0.97737">
        <ele>314</ele>
        <time>2024-03-21T10:47:39Z</time>
      </trkpt>
      <trkpt lat="45.50599" lon="0.97793">
        <ele>313</ele>
        <time>2024-03-21T10:47:54Z</time>
      </trkpt>
      <trkpt lat="45.50628" lon="0.97824">
        <ele>314</ele>
        <time>2024-03-21T10:48:00Z</time>
      </trkpt>
      <trkpt lat="45.50642" lon="0.97847">
        <ele>315</ele>
        <time>2024-03-21T10:48:04Z</time>
      </trkpt>
      <trkpt lat="45.5066" lon="0.97878">
        <ele>314</ele>
        <time>2024-03-21T10:48:09Z</time>
      </trkpt>
      <trkpt lat="45.50846" lon="0.98291">
        <ele>306</ele>
        <time>2024-03-21T10:49:11Z</time>
      </trkpt>
      <trkpt lat="45.50936" lon="0.98662">
        <ele>290</ele>
        <time>2024-03-21T10:49:59Z</time>
      </trkpt>
      <trkpt lat="45.50942" lon="0.98679">
        <ele>289</ele>
        <time>2024-03-21T10:50:02Z</time>
      </trkpt>
      <trkpt lat="45.50958" lon="0.98704">
        <ele>288</ele>
        <time>2024-03-21T10:50:06Z</time>
      </trkpt>
      <trkpt lat="45.50964" lon="0.98725">
        <ele>287</ele>
        <time>2024-03-21T10:50:09Z</time>
      </trkpt>
      <trkpt lat="45.50964" lon="0.9875">
        <ele>287</ele>
        <time>2024-03-21T10:50:12Z</time>
      </trkpt>
      <trkpt lat="45.50958" lon="0.98766">
        <ele>287</ele>
        <time>2024-03-21T10:50:14Z</time>
      </trkpt>
      <trkpt lat="45.50945" lon="0.98787">
        <ele>287</ele>
        <time>2024-03-21T10:50:18Z</time>
      </trkpt>
      <trkpt lat="45.50932" lon="0.988">
        <ele>287</ele>
        <time>2024-03-21T10:50:21Z</time>
      </trkpt>
      <trkpt lat="45.50911" lon="0.98813">
        <ele>287</ele>
        <time>2024-03-21T10:50:25Z</time>
      </trkpt>
      <trkpt lat="45.50897" lon="0.9883">
        <ele>287</ele>
        <time>2024-03-21T10:50:28Z</time>
      </trkpt>
      <trkpt lat="45.50882" lon="0.98877">
        <ele>288</ele>
        <time>2024-03-21T10:50:34Z</time>
      </trkpt>
      <trkpt lat="45.50872" lon="0.98904">
        <ele>287</ele>
        <time>2024-03-21T10:50:38Z</time>
      </trkpt>
      <trkpt lat="45.50858" lon="0.98935">
        <ele>286</ele>
        <time>2024-03-21T10:50:43Z</time>
      </trkpt>
      <trkpt lat="45.50843" lon="0.9896">
        <ele>284</ele>
        <time>2024-03-21T10:50:47Z</time>
      </trkpt>
      <trkpt lat="45.50821" lon="0.99019">
        <ele>284</ele>
        <time>2024-03-21T10:50:55Z</time>
      </trkpt>
      <trkpt lat="45.50813" lon="0.99046">
        <ele>284</ele>
        <time>2024-03-21T10:50:59Z</time>
      </trkpt>
      <trkpt lat="45.50809" lon="0.99067">
        <ele>283</ele>
        <time>2024-03-21T10:51:02Z</time>
      </trkpt>
      <trkpt lat="45.50807" lon="0.99098">
        <ele>283</ele>
        <time>2024-03-21T10:51:05Z</time>
      </trkpt>
      <trkpt lat="45.50801" lon="0.99131">
        <ele>282</ele>
        <time>2024-03-21T10:51:10Z</time>
      </trkpt>
      <trkpt lat="45.50775" lon="0.99233">
        <ele>276</ele>
        <time>2024-03-21T10:51:23Z</time>
      </trkpt>
      <trkpt lat="45.50764" lon="0.99261">
        <ele>276</ele>
        <time>2024-03-21T10:51:27Z</time>
      </trkpt>
      <trkpt lat="45.50749" lon="0.9928">
        <ele>276</ele>
        <time>2024-03-21T10:51:31Z</time>
      </trkpt>
      <trkpt lat="45.50734" lon="0.99287">
        <ele>276</ele>
        <time>2024-03-21T10:51:34Z</time>
      </trkpt>
      <trkpt lat="45.5072" lon="0.9929">
        <ele>276</ele>
        <time>2024-03-21T10:51:36Z</time>
      </trkpt>
      <trkpt lat="45.50607" lon="0.99295">
        <ele>275</ele>
        <time>2024-03-21T10:51:56Z</time>
      </trkpt>
      <trkpt lat="45.5057" lon="0.99303">
        <ele>275</ele>
        <time>2024-03-21T10:52:03Z</time>
      </trkpt>
      <trkpt lat="45.50557" lon="0.99298">
        <ele>274</ele>
        <time>2024-03-21T10:52:05Z</time>
      </trkpt>
      <trkpt lat="45.50544" lon="0.99285">
        <ele>273</ele>
        <time>2024-03-21T10:52:08Z</time>
      </trkpt>
      <trkpt lat="45.50529" lon="0.99275">
        <ele>272</ele>
        <time>2024-03-21T10:52:11Z</time>
      </trkpt>
      <trkpt lat="45.50514" lon="0.99273">
        <ele>272</ele>
        <time>2024-03-21T10:52:14Z</time>
      </trkpt>
      <trkpt lat="45.505" lon="0.99276">
        <ele>272</ele>
        <time>2024-03-21T10:52:16Z</time>
      </trkpt>
      <trkpt lat="45.50486" lon="0.99288">
        <ele>272</ele>
        <time>2024-03-21T10:52:19Z</time>
      </trkpt>
      <trkpt lat="45.50476" lon="0.99306">
        <ele>273</ele>
        <time>2024-03-21T10:52:22Z</time>
      </trkpt>
      <trkpt lat="45.50467" lon="0.99332">
        <ele>273</ele>
        <time>2024-03-21T10:52:26Z</time>
      </trkpt>
      <trkpt lat="45.50459" lon="0.99375">
        <ele>274</ele>
        <time>2024-03-21T10:52:31Z</time>
      </trkpt>
      <trkpt lat="45.50454" lon="0.99389">
        <ele>275</ele>
        <time>2024-03-21T10:52:33Z</time>
      </trkpt>
      <trkpt lat="45.50446" lon="0.99396">
        <ele>275</ele>
        <time>2024-03-21T10:52:35Z</time>
      </trkpt>
      <trkpt lat="45.50438" lon="0.99398">
        <ele>274</ele>
        <time>2024-03-21T10:52:36Z</time>
      </trkpt>
      <trkpt lat="45.50427" lon="0.99396">
        <ele>273</ele>
        <time>2024-03-21T10:52:38Z</time>
      </trkpt>
      <trkpt lat="45.50413" lon="0.9939">
        <ele>272</ele>
        <time>2024-03-21T10:52:41Z</time>
      </trkpt>
      <trkpt lat="45.50401" lon="0.99389">
        <ele>272</ele>
        <time>2024-03-21T10:52:43Z</time>
      </trkpt>
      <trkpt lat="45.50389" lon="0.99391">
        <ele>272</ele>
        <time>2024-03-21T10:52:45Z</time>
      </trkpt>
      <trkpt lat="45.50362" lon="0.99402">
        <ele>272</ele>
        <time>2024-03-21T10:52:50Z</time>
      </trkpt>
      <trkpt lat="45.50352" lon="0.99404">
        <ele>272</ele>
        <time>2024-03-21T10:52:52Z</time>
      </trkpt>
      <trkpt lat="45.50341" lon="0.99403">
        <ele>272</ele>
        <time>2024-03-21T10:52:54Z</time>
      </trkpt>
      <trkpt lat="45.50331" lon="0.99399">
        <ele>271</ele>
        <time>2024-03-21T10:52:56Z</time>
      </trkpt>
      <trkpt lat="45.50318" lon="0.99387">
        <ele>271</ele>
        <time>2024-03-21T10:52:59Z</time>
      </trkpt>
      <trkpt lat="45.5027" lon="0.99334">
        <ele>268</ele>
        <time>2024-03-21T10:53:09Z</time>
      </trkpt>
      <trkpt lat="45.50261" lon="0.99328">
        <ele>268</ele>
        <time>2024-03-21T10:53:11Z</time>
      </trkpt>
      <trkpt lat="45.5025" lon="0.99327">
        <ele>268</ele>
        <time>2024-03-21T10:53:13Z</time>
      </trkpt>
      <trkpt lat="45.50233" lon="0.9933">
        <ele>267</ele>
        <time>2024-03-21T10:53:16Z</time>
      </trkpt>
      <trkpt lat="45.5022" lon="0.99336">
        <ele>267</ele>
        <time>2024-03-21T10:53:19Z</time>
      </trkpt>
      <trkpt lat="45.50213" lon="0.99342">
        <ele>267</ele>
        <time>2024-03-21T10:53:20Z</time>
      </trkpt>
      <trkpt lat="45.50208" lon="0.99349">
        <ele>267</ele>
        <time>2024-03-21T10:53:21Z</time>
      </trkpt>
      <trkpt lat="45.50205" lon="0.99358">
        <ele>267</ele>
        <time>2024-03-21T10:53:22Z</time>
      </trkpt>
      <trkpt lat="45.50205" lon="0.9937">
        <ele>268</ele>
        <time>2024-03-21T10:53:24Z</time>
      </trkpt>
      <trkpt lat="45.50228" lon="0.99428">
        <ele>272</ele>
        <time>2024-03-21T10:53:32Z</time>
      </trkpt>
      <trkpt lat="45.50235" lon="0.9945">
        <ele>273</ele>
        <time>2024-03-21T10:53:35Z</time>
      </trkpt>
      <trkpt lat="45.50237" lon="0.99467">
        <ele>274</ele>
        <time>2024-03-21T10:53:37Z</time>
      </trkpt>
      <trkpt lat="45.50234" lon="0.99487">
        <ele>275</ele>
        <time>2024-03-21T10:53:40Z</time>
      </trkpt>
      <trkpt lat="45.50193" lon="0.99618">
        <ele>281</ele>
        <time>2024-03-21T10:53:58Z</time>
      </trkpt>
      <trkpt lat="45.50184" lon="0.99662">
        <ele>283</ele>
        <time>2024-03-21T10:54:04Z</time>
      </trkpt>
      <trkpt lat="45.50179" lon="0.99716">
        <ele>285</ele>
        <time>2024-03-21T10:54:10Z</time>
      </trkpt>
      <trkpt lat="45.50179" lon="0.99761">
        <ele>286</ele>
        <time>2024-03-21T10:54:16Z</time>
      </trkpt>
      <trkpt lat="45.50189" lon="0.99815">
        <ele>286</ele>
        <time>2024-03-21T10:54:23Z</time>
      </trkpt>
      <trkpt lat="45.50221" lon="0.99892">
        <ele>286</ele>
        <time>2024-03-21T10:54:34Z</time>
      </trkpt>
      <trkpt lat="45.50233" lon="0.99934">
        <ele>285</ele>
        <time>2024-03-21T10:54:40Z</time>
      </trkpt>
      <trkpt lat="45.50263" lon="1.00017">
        <ele>283</ele>
        <time>2024-03-21T10:54:51Z</time>
      </trkpt>
      <trkpt lat="45.50266" lon="1.00048">
        <ele>281</ele>
        <time>2024-03-21T10:54:55Z</time>
      </trkpt>
      <trkpt lat="45.50263" lon="1.00101">
        <ele>278</ele>
        <time>2024-03-21T10:55:02Z</time>
      </trkpt>
      <trkpt lat="45.50272" lon="1.0012">
        <ele>277</ele>
        <time>2024-03-21T10:55:05Z</time>
      </trkpt>
      <trkpt lat="45.50304" lon="1.00138">
        <ele>277</ele>
        <time>2024-03-21T10:55:11Z</time>
      </trkpt>
      <trkpt lat="45.50356" lon="1.00185">
        <ele>276</ele>
        <time>2024-03-21T10:55:22Z</time>
      </trkpt>
      <trkpt lat="45.50403" lon="1.00196">
        <ele>279</ele>
        <time>2024-03-21T10:55:30Z</time>
      </trkpt>
      <trkpt lat="45.50411" lon="1.00217">
        <ele>279</ele>
        <time>2024-03-21T10:55:33Z</time>
      </trkpt>
      <trkpt lat="45.50395" lon="1.00273">
        <ele>275</ele>
        <time>2024-03-21T10:55:41Z</time>
      </trkpt>
      <trkpt lat="45.50397" lon="1.00311">
        <ele>273</ele>
        <time>2024-03-21T10:55:46Z</time>
      </trkpt>
      <trkpt lat="45.50406" lon="1.00378">
        <ele>271</ele>
        <time>2024-03-21T10:55:54Z</time>
      </trkpt>
      <trkpt lat="45.50454" lon="1.00507">
        <ele>269</ele>
        <time>2024-03-21T10:56:12Z</time>
      </trkpt>
      <trkpt lat="45.50454" lon="1.0055">
        <ele>268</ele>
        <time>2024-03-21T10:56:18Z</time>
      </trkpt>
      <trkpt lat="45.50449" lon="1.00631">
        <ele>269</ele>
        <time>2024-03-21T10:56:28Z</time>
      </trkpt>
      <trkpt lat="45.50439" lon="1.00661">
        <ele>270</ele>
        <time>2024-03-21T10:56:32Z</time>
      </trkpt>
      <trkpt lat="45.50406" lon="1.00716">
        <ele>274</ele>
        <time>2024-03-21T10:56:41Z</time>
      </trkpt>
      <trkpt lat="45.50392" lon="1.00818">
        <ele>280</ele>
        <time>2024-03-21T10:56:54Z</time>
      </trkpt>
      <trkpt lat="45.50382" lon="1.0085">
        <ele>281</ele>
        <time>2024-03-21T10:56:58Z</time>
      </trkpt>
      <trkpt lat="45.5033" lon="1.00908">
        <ele>282</ele>
        <time>2024-03-21T10:57:10Z</time>
      </trkpt>
      <trkpt lat="45.50311" lon="1.00929">
        <ele>283</ele>
        <time>2024-03-21T10:57:14Z</time>
      </trkpt>
      <trkpt lat="45.50284" lon="1.0098">
        <ele>283</ele>
        <time>2024-03-21T10:57:22Z</time>
      </trkpt>
      <trkpt lat="45.50275" lon="1.01041">
        <ele>285</ele>
        <time>2024-03-21T10:57:30Z</time>
      </trkpt>
      <trkpt lat="45.50269" lon="1.01101">
        <ele>288</ele>
        <time>2024-03-21T10:57:38Z</time>
      </trkpt>
      <trkpt lat="45.50251" lon="1.012">
        <ele>293</ele>
        <time>2024-03-21T10:57:50Z</time>
      </trkpt>
      <trkpt lat="45.50249" lon="1.01243">
        <ele>292</ele>
        <time>2024-03-21T10:57:56Z</time>
      </trkpt>
      <trkpt lat="45.50261" lon="1.01289">
        <ele>293</ele>
        <time>2024-03-21T10:58:02Z</time>
      </trkpt>
      <trkpt lat="45.50275" lon="1.01359">
        <ele>295</ele>
        <time>2024-03-21T10:58:11Z</time>
      </trkpt>
      <trkpt lat="45.50285" lon="1.01436">
        <ele>298</ele>
        <time>2024-03-21T10:58:21Z</time>
      </trkpt>
      <trkpt lat="45.50296" lon="1.01558">
        <ele>299</ele>
        <time>2024-03-21T10:58:36Z</time>
      </trkpt>
      <trkpt lat="45.50284" lon="1.01603">
        <ele>302</ele>
        <time>2024-03-21T10:58:42Z</time>
      </trkpt>
      <trkpt lat="45.50267" lon="1.01635">
        <ele>305</ele>
        <time>2024-03-21T10:58:47Z</time>
      </trkpt>
      <trkpt lat="45.50188" lon="1.01693">
        <ele>311</ele>
        <time>2024-03-21T10:59:03Z</time>
      </trkpt>
      <trkpt lat="45.50178" lon="1.01725">
        <ele>313</ele>
        <time>2024-03-21T10:59:07Z</time>
      </trkpt>
      <trkpt lat="45.50177" lon="1.01753">
        <ele>315</ele>
        <time>2024-03-21T10:59:11Z</time>
      </trkpt>
      <trkpt lat="45.50123" lon="1.01827">
        <ele>320</ele>
        <time>2024-03-21T10:59:24Z</time>
      </trkpt>
      <trkpt lat="45.50126" lon="1.01854">
        <ele>321</ele>
        <time>2024-03-21T10:59:28Z</time>
      </trkpt>
      <trkpt lat="45.50148" lon="1.01919">
        <ele>322</ele>
        <time>2024-03-21T10:59:37Z</time>
      </trkpt>
      <trkpt lat="45.50181" lon="1.02025">
        <ele>321</ele>
        <time>2024-03-21T10:59:51Z</time>
      </trkpt>
      <trkpt lat="45.50202" lon="1.02117">
        <ele>322</ele>
        <time>2024-03-21T11:00:03Z</time>
      </trkpt>
      <trkpt lat="45.502" lon="1.02174">
        <ele>324</ele>
        <time>2024-03-21T11:00:10Z</time>
      </trkpt>
      <trkpt lat="45.50188" lon="1.02223">
        <ele>326</ele>
        <time>2024-03-21T11:00:17Z</time>
      </trkpt>
      <trkpt lat="45.50149" lon="1.02366">
        <ele>332</ele>
        <time>2024-03-21T11:00:36Z</time>
      </trkpt>
      <trkpt lat="45.50112" lon="1.02511">
        <ele>338</ele>
        <time>2024-03-21T11:00:55Z</time>
      </trkpt>
      <trkpt lat="45.50117" lon="1.02555">
        <ele>339</ele>
        <time>2024-03-21T11:01:01Z</time>
      </trkpt>
      <trkpt lat="45.50126" lon="1.02613">
        <ele>339</ele>
        <time>2024-03-21T11:01:08Z</time>
      </trkpt>
      <trkpt lat="45.50148" lon="1.02751">
        <ele>338</ele>
        <time>2024-03-21T11:01:26Z</time>
      </trkpt>
      <trkpt lat="45.50151" lon="1.02789">
        <ele>337</ele>
        <time>2024-03-21T11:01:30Z</time>
      </trkpt>
      <trkpt lat="45.50151" lon="1.02812">
        <ele>336</ele>
        <time>2024-03-21T11:01:33Z</time>
      </trkpt>
      <trkpt lat="45.50136" lon="1.02849">
        <ele>335</ele>
        <time>2024-03-21T11:01:39Z</time>
      </trkpt>
      <trkpt lat="45.50126" lon="1.02865">
        <ele>334</ele>
        <time>2024-03-21T11:01:41Z</time>
      </trkpt>
      <trkpt lat="45.50094" lon="1.02897">
        <ele>334</ele>
        <time>2024-03-21T11:01:48Z</time>
      </trkpt>
      <trkpt lat="45.50077" lon="1.02919">
        <ele>333</ele>
        <time>2024-03-21T11:01:52Z</time>
      </trkpt>
      <trkpt lat="45.5007" lon="1.02936">
        <ele>333</ele>
        <time>2024-03-21T11:01:55Z</time>
      </trkpt>
      <trkpt lat="45.50064" lon="1.02954">
        <ele>332</ele>
        <time>2024-03-21T11:01:57Z</time>
      </trkpt>
      <trkpt lat="45.50063" lon="1.02972">
        <ele>332</ele>
        <time>2024-03-21T11:02:00Z</time>
      </trkpt>
      <trkpt lat="45.50063" lon="1.02992">
        <ele>331</ele>
        <time>2024-03-21T11:02:02Z</time>
      </trkpt>
      <trkpt lat="45.50066" lon="1.03012">
        <ele>331</ele>
        <time>2024-03-21T11:02:05Z</time>
      </trkpt>
      <trkpt lat="45.5013" lon="1.03213">
        <ele>323</ele>
        <time>2024-03-21T11:02:32Z</time>
      </trkpt>
      <trkpt lat="45.50135" lon="1.03234">
        <ele>322</ele>
        <time>2024-03-21T11:02:35Z</time>
      </trkpt>
      <trkpt lat="45.50137" lon="1.03261">
        <ele>320</ele>
        <time>2024-03-21T11:02:38Z</time>
      </trkpt>
      <trkpt lat="45.50134" lon="1.0335">
        <ele>316</ele>
        <time>2024-03-21T11:02:49Z</time>
      </trkpt>
      <trkpt lat="45.50137" lon="1.0338">
        <ele>315</ele>
        <time>2024-03-21T11:02:53Z</time>
      </trkpt>
      <trkpt lat="45.50142" lon="1.03403">
        <ele>315</ele>
        <time>2024-03-21T11:02:56Z</time>
      </trkpt>
      <trkpt lat="45.50169" lon="1.03507">
        <ele>310</ele>
        <time>2024-03-21T11:03:10Z</time>
      </trkpt>
      <trkpt lat="45.50175" lon="1.03541">
        <ele>309</ele>
        <time>2024-03-21T11:03:14Z</time>
      </trkpt>
      <trkpt lat="45.5019" lon="1.03655">
        <ele>304</ele>
        <time>2024-03-21T11:03:29Z</time>
      </trkpt>
      <trkpt lat="45.50189" lon="1.03683">
        <ele>304</ele>
        <time>2024-03-21T11:03:32Z</time>
      </trkpt>
      <trkpt lat="45.50185" lon="1.03705">
        <ele>304</ele>
        <time>2024-03-21T11:03:35Z</time>
      </trkpt>
      <trkpt lat="45.50178" lon="1.03728">
        <ele>304</ele>
        <time>2024-03-21T11:03:38Z</time>
      </trkpt>
      <trkpt lat="45.50153" lon="1.03766">
        <ele>305</ele>
        <time>2024-03-21T11:03:45Z</time>
      </trkpt>
      <trkpt lat="45.50116" lon="1.03815">
        <ele>307</ele>
        <time>2024-03-21T11:03:54Z</time>
      </trkpt>
      <trkpt lat="45.50102" lon="1.03842">
        <ele>309</ele>
        <time>2024-03-21T11:03:58Z</time>
      </trkpt>
      <trkpt lat="45.5009" lon="1.03884">
        <ele>311</ele>
        <time>2024-03-21T11:04:04Z</time>
      </trkpt>
      <trkpt lat="45.50085" lon="1.03909">
        <ele>313</ele>
        <time>2024-03-21T11:04:07Z</time>
      </trkpt>
      <trkpt lat="45.50084" lon="1.03935">
        <ele>313</ele>
        <time>2024-03-21T11:04:10Z</time>
      </trkpt>
      <trkpt lat="45.50087" lon="1.03985">
        <ele>315</ele>
        <time>2024-03-21T11:04:16Z</time>
      </trkpt>
      <trkpt lat="45.50095" lon="1.04038">
        <ele>317</ele>
        <time>2024-03-21T11:04:23Z</time>
      </trkpt>
      <trkpt lat="45.50108" lon="1.04073">
        <ele>319</ele>
        <time>2024-03-21T11:04:28Z</time>
      </trkpt>
      <trkpt lat="45.50113" lon="1.04111">
        <ele>320</ele>
        <time>2024-03-21T11:04:33Z</time>
      </trkpt>
      <trkpt lat="45.5011" lon="1.04138">
        <ele>320</ele>
        <time>2024-03-21T11:04:36Z</time>
      </trkpt>
      <trkpt lat="45.50066" lon="1.0441">
        <ele>323</ele>
        <time>2024-03-21T11:05:11Z</time>
      </trkpt>
      <trkpt lat="45.50054" lon="1.04429">
        <ele>323</ele>
        <time>2024-03-21T11:05:14Z</time>
      </trkpt>
      <trkpt lat="45.49957" lon="1.04546">
        <ele>321</ele>
        <time>2024-03-21T11:05:37Z</time>
      </trkpt>
      <trkpt lat="45.49924" lon="1.04579">
        <ele>321</ele>
        <time>2024-03-21T11:05:44Z</time>
      </trkpt>
      <trkpt lat="45.49856" lon="1.04633">
        <ele>321</ele>
        <time>2024-03-21T11:05:58Z</time>
      </trkpt>
      <trkpt lat="45.49637" lon="1.04891">
        <ele>305</ele>
        <time>2024-03-21T11:06:48Z</time>
      </trkpt>
      <trkpt lat="45.49623" lon="1.04903">
        <ele>304</ele>
        <time>2024-03-21T11:06:51Z</time>
      </trkpt>
      <trkpt lat="45.49601" lon="1.04916">
        <ele>303</ele>
        <time>2024-03-21T11:06:56Z</time>
      </trkpt>
      <trkpt lat="45.49569" lon="1.04933">
        <ele>300</ele>
        <time>2024-03-21T11:07:02Z</time>
      </trkpt>
      <trkpt lat="45.49557" lon="1.04941">
        <ele>299</ele>
        <time>2024-03-21T11:07:04Z</time>
      </trkpt>
      <trkpt lat="45.49531" lon="1.04968">
        <ele>296</ele>
        <time>2024-03-21T11:07:10Z</time>
      </trkpt>
      <trkpt lat="45.49491" lon="1.05046">
        <ele>289</ele>
        <time>2024-03-21T11:07:22Z</time>
      </trkpt>
      <trkpt lat="45.49457" lon="1.05139">
        <ele>283</ele>
        <time>2024-03-21T11:07:35Z</time>
      </trkpt>
      <trkpt lat="45.49449" lon="1.05175">
        <ele>281</ele>
        <time>2024-03-21T11:07:40Z</time>
      </trkpt>
      <trkpt lat="45.49407" lon="1.05391">
        <ele>260</ele>
        <time>2024-03-21T11:08:08Z</time>
      </trkpt>
      <trkpt lat="45.49407" lon="1.05414">
        <ele>257</ele>
        <time>2024-03-21T11:08:10Z</time>
      </trkpt>
      <trkpt lat="45.49409" lon="1.05426">
        <ele>254</ele>
        <time>2024-03-21T11:08:12Z</time>
      </trkpt>
      <trkpt lat="45.49415" lon="1.05437">
        <ele>252</ele>
        <time>2024-03-21T11:08:14Z</time>
      </trkpt>
      <trkpt lat="45.49424" lon="1.05449">
        <ele>251</ele>
        <time>2024-03-21T11:08:16Z</time>
      </trkpt>
      <trkpt lat="45.49486" lon="1.05504">
        <ele>251</ele>
        <time>2024-03-21T11:08:29Z</time>
      </trkpt>
      <trkpt lat="45.49488" lon="1.0551">
        <ele>251</ele>
        <time>2024-03-21T11:08:30Z</time>
      </trkpt>
      <trkpt lat="45.49488" lon="1.05515">
        <ele>251</ele>
        <time>2024-03-21T11:08:30Z</time>
      </trkpt>
      <trkpt lat="45.49485" lon="1.0552">
        <ele>251</ele>
        <time>2024-03-21T11:08:31Z</time>
      </trkpt>
      <trkpt lat="45.49482" lon="1.05522">
        <ele>250</ele>
        <time>2024-03-21T11:08:32Z</time>
      </trkpt>
      <trkpt lat="45.49473" lon="1.05521">
        <ele>249</ele>
        <time>2024-03-21T11:08:33Z</time>
      </trkpt>
      <trkpt lat="45.49369" lon="1.05495">
        <ele>233</ele>
        <time>2024-03-21T11:08:52Z</time>
      </trkpt>
      <trkpt lat="45.49354" lon="1.05496">
        <ele>230</ele>
        <time>2024-03-21T11:08:55Z</time>
      </trkpt>
      <trkpt lat="45.49346" lon="1.05503">
        <ele>228</ele>
        <time>2024-03-21T11:08:56Z</time>
      </trkpt>
      <trkpt lat="45.49336" lon="1.05543">
        <ele>224</ele>
        <time>2024-03-21T11:09:02Z</time>
      </trkpt>
      <trkpt lat="45.49326" lon="1.05581">
        <ele>221</ele>
        <time>2024-03-21T11:09:07Z</time>
      </trkpt>
      <trkpt lat="45.4932" lon="1.05614">
        <ele>222</ele>
        <time>2024-03-21T11:09:11Z</time>
      </trkpt>
      <trkpt lat="45.49321" lon="1.05623">
        <ele>222</ele>
        <time>2024-03-21T11:09:12Z</time>
      </trkpt>
      <trkpt lat="45.49326" lon="1.05639">
        <ele>223</ele>
        <time>2024-03-21T11:09:14Z</time>
      </trkpt>
      <trkpt lat="45.49327" lon="1.05646">
        <ele>224</ele>
        <time>2024-03-21T11:09:15Z</time>
      </trkpt>
      <trkpt lat="45.49325" lon="1.0565">
        <ele>224</ele>
        <time>2024-03-21T11:09:16Z</time>
      </trkpt>
      <trkpt lat="45.49321" lon="1.05652">
        <ele>224</ele>
        <time>2024-03-21T11:09:17Z</time>
      </trkpt>
      <trkpt lat="45.49299" lon="1.05648">
        <ele>223</ele>
        <time>2024-03-21T11:09:21Z</time>
      </trkpt>
      <trkpt lat="45.4927" lon="1.05652">
        <ele>223</ele>
        <time>2024-03-21T11:09:26Z</time>
      </trkpt>
      <trkpt lat="45.49263" lon="1.05656">
        <ele>223</ele>
        <time>2024-03-21T11:09:27Z</time>
      </trkpt>
      <trkpt lat="45.4926" lon="1.05661">
        <ele>224</ele>
        <time>2024-03-21T11:09:28Z</time>
      </trkpt>
      <trkpt lat="45.49259" lon="1.05667">
        <ele>224</ele>
        <time>2024-03-21T11:09:29Z</time>
      </trkpt>
      <trkpt lat="45.49262" lon="1.05672">
        <ele>225</ele>
        <time>2024-03-21T11:09:30Z</time>
      </trkpt>
      <trkpt lat="45.49267" lon="1.05675">
        <ele>226</ele>
        <time>2024-03-21T11:09:31Z</time>
      </trkpt>
      <trkpt lat="45.49297" lon="1.05687">
        <ele>227</ele>
        <time>2024-03-21T11:09:36Z</time>
      </trkpt>
      <trkpt lat="45.49303" lon="1.05691">
        <ele>227</ele>
        <time>2024-03-21T11:09:37Z</time>
      </trkpt>
      <trkpt lat="45.49307" lon="1.05698">
        <ele>228</ele>
        <time>2024-03-21T11:09:38Z</time>
      </trkpt>
      <trkpt lat="45.49308" lon="1.05709">
        <ele>229</ele>
        <time>2024-03-21T11:09:40Z</time>
      </trkpt>
      <trkpt lat="45.49305" lon="1.05725">
        <ele>230</ele>
        <time>2024-03-21T11:09:42Z</time>
      </trkpt>
      <trkpt lat="45.49298" lon="1.0574">
        <ele>233</ele>
        <time>2024-03-21T11:09:44Z</time>
      </trkpt>
      <trkpt lat="45.49278" lon="1.05765">
        <ele>237</ele>
        <time>2024-03-21T11:09:49Z</time>
      </trkpt>
      <trkpt lat="45.49274" lon="1.05786">
        <ele>240</ele>
        <time>2024-03-21T11:09:52Z</time>
      </trkpt>
      <trkpt lat="45.49273" lon="1.05837">
        <ele>245</ele>
        <time>2024-03-21T11:09:58Z</time>
      </trkpt>
      <trkpt lat="45.49274" lon="1.05856">
        <ele>247</ele>
        <time>2024-03-21T11:10:00Z</time>
      </trkpt>
      <trkpt lat="45.49276" lon="1.0587">
        <ele>248</ele>
        <time>2024-03-21T11:10:02Z</time>
      </trkpt>
      <trkpt lat="45.49285" lon="1.05897">
        <ele>249</ele>
        <time>2024-03-21T11:10:06Z</time>
      </trkpt>
      <trkpt lat="45.49316" lon="1.0596">
        <ele>253</ele>
        <time>2024-03-21T11:10:15Z</time>
      </trkpt>
      <trkpt lat="45.49334" lon="1.06006">
        <ele>261</ele>
        <time>2024-03-21T11:10:22Z</time>
      </trkpt>
      <trkpt lat="45.49337" lon="1.06027">
        <ele>263</ele>
        <time>2024-03-21T11:10:25Z</time>
      </trkpt>
      <trkpt lat="45.4929" lon="1.06061">
        <ele>267</ele>
        <time>2024-03-21T11:10:34Z</time>
      </trkpt>
      <trkpt lat="45.49281" lon="1.0607">
        <ele>267</ele>
        <time>2024-03-21T11:10:36Z</time>
      </trkpt>
      <trkpt lat="45.49264" lon="1.06072">
        <ele>267</ele>
        <time>2024-03-21T11:10:39Z</time>
      </trkpt>
      <trkpt lat="45.49235" lon="1.06093">
        <ele>264</ele>
        <time>2024-03-21T11:10:45Z</time>
      </trkpt>
      <trkpt lat="45.49222" lon="1.06107">
        <ele>261</ele>
        <time>2024-03-21T11:10:48Z</time>
      </trkpt>
      <trkpt lat="45.49213" lon="1.06119">
        <ele>259</ele>
        <time>2024-03-21T11:10:50Z</time>
      </trkpt>
      <trkpt lat="45.49206" lon="1.06133">
        <ele>258</ele>
        <time>2024-03-21T11:10:52Z</time>
      </trkpt>
      <trkpt lat="45.492" lon="1.06153">
        <ele>256</ele>
        <time>2024-03-21T11:10:55Z</time>
      </trkpt>
      <trkpt lat="45.49198" lon="1.06176">
        <ele>256</ele>
        <time>2024-03-21T11:10:58Z</time>
      </trkpt>
      <trkpt lat="45.49196" lon="1.0624">
        <ele>257</ele>
        <time>2024-03-21T11:11:06Z</time>
      </trkpt>
      <trkpt lat="45.49192" lon="1.06272">
        <ele>258</ele>
        <time>2024-03-21T11:11:10Z</time>
      </trkpt>
      <trkpt lat="45.49173" lon="1.06322">
        <ele>257</ele>
        <time>2024-03-21T11:11:17Z</time>
      </trkpt>
      <trkpt lat="45.49167" lon="1.06344">
        <ele>256</ele>
        <time>2024-03-21T11:11:20Z</time>
      </trkpt>
      <trkpt lat="45.49166" lon="1.06365">
        <ele>257</ele>
        <time>2024-03-21T11:11:22Z</time>
      </trkpt>
      <trkpt lat="45.4917" lon="1.06385">
        <ele>258</ele>
        <time>2024-03-21T11:11:25Z</time>
      </trkpt>
      <trkpt lat="45.49201" lon="1.06447">
        <ele>264</ele>
        <time>2024-03-21T11:11:34Z</time>
      </trkpt>
      <trkpt lat="45.49207" lon="1.06464">
        <ele>264</ele>
        <time>2024-03-21T11:11:37Z</time>
      </trkpt>
      <trkpt lat="45.4921" lon="1.06479">
        <ele>264</ele>
        <time>2024-03-21T11:11:39Z</time>
      </trkpt>
      <trkpt lat="45.4921" lon="1.06496">
        <ele>263</ele>
        <time>2024-03-21T11:11:41Z</time>
      </trkpt>
      <trkpt lat="45.49203" lon="1.06521">
        <ele>262</ele>
        <time>2024-03-21T11:11:44Z</time>
      </trkpt>
      <trkpt lat="45.49196" lon="1.06534">
        <ele>261</ele>
        <time>2024-03-21T11:11:46Z</time>
      </trkpt>
      <trkpt lat="45.49189" lon="1.06541">
        <ele>259</ele>
        <time>2024-03-21T11:11:48Z</time>
      </trkpt>
      <trkpt lat="45.49171" lon="1.0655">
        <ele>257</ele>
        <time>2024-03-21T11:11:51Z</time>
      </trkpt>
      <trkpt lat="45.49152" lon="1.06549">
        <ele>258</ele>
        <time>2024-03-21T11:11:55Z</time>
      </trkpt>
      <trkpt lat="45.49136" lon="1.06541">
        <ele>260</ele>
        <time>2024-03-21T11:11:58Z</time>
      </trkpt>
      <trkpt lat="45.49129" lon="1.06533">
        <ele>261</ele>
        <time>2024-03-21T11:11:59Z</time>
      </trkpt>
      <trkpt lat="45.49121" lon="1.06523">
        <ele>263</ele>
        <time>2024-03-21T11:12:01Z</time>
      </trkpt>
      <trkpt lat="45.49111" lon="1.06501">
        <ele>265</ele>
        <time>2024-03-21T11:12:04Z</time>
      </trkpt>
      <trkpt lat="45.49087" lon="1.06399">
        <ele>267</ele>
        <time>2024-03-21T11:12:18Z</time>
      </trkpt>
      <trkpt lat="45.49084" lon="1.06379">
        <ele>267</ele>
        <time>2024-03-21T11:12:20Z</time>
      </trkpt>
      <trkpt lat="45.49083" lon="1.06364">
        <ele>267</ele>
        <time>2024-03-21T11:12:22Z</time>
      </trkpt>
      <trkpt lat="45.49084" lon="1.06348">
        <ele>266</ele>
        <time>2024-03-21T11:12:24Z</time>
      </trkpt>
      <trkpt lat="45.49096" lon="1.06281">
        <ele>262</ele>
        <time>2024-03-21T11:12:33Z</time>
      </trkpt>
      <trkpt lat="45.49096" lon="1.06259">
        <ele>261</ele>
        <time>2024-03-21T11:12:36Z</time>
      </trkpt>
      <trkpt lat="45.49088" lon="1.06239">
        <ele>260</ele>
        <time>2024-03-21T11:12:38Z</time>
      </trkpt>
      <trkpt lat="45.49082" lon="1.0623">
        <ele>259</ele>
        <time>2024-03-21T11:12:40Z</time>
      </trkpt>
      <trkpt lat="45.49012" lon="1.06149">
        <ele>260</ele>
        <time>2024-03-21T11:12:56Z</time>
      </trkpt>
      <trkpt lat="45.48997" lon="1.06117">
        <ele>259</ele>
        <time>2024-03-21T11:13:01Z</time>
      </trkpt>
      <trkpt lat="45.48971" lon="1.06001">
        <ele>251</ele>
        <time>2024-03-21T11:13:16Z</time>
      </trkpt>
      <trkpt lat="45.48956" lon="1.05917">
        <ele>250</ele>
        <time>2024-03-21T11:13:27Z</time>
      </trkpt>
      <trkpt lat="45.48918" lon="1.05751">
        <ele>246</ele>
        <time>2024-03-21T11:13:49Z</time>
      </trkpt>
      <trkpt lat="45.48909" lon="1.05725">
        <ele>244</ele>
        <time>2024-03-21T11:13:52Z</time>
      </trkpt>
      <trkpt lat="45.48903" lon="1.05726">
        <ele>245</ele>
        <time>2024-03-21T11:13:53Z</time>
      </trkpt>
      <trkpt lat="45.48894" lon="1.05723">
        <ele>246</ele>
        <time>2024-03-21T11:13:55Z</time>
      </trkpt>
      <trkpt lat="45.48885" lon="1.05716">
        <ele>247</ele>
        <time>2024-03-21T11:13:57Z</time>
      </trkpt>
      <trkpt lat="45.4886" lon="1.05687">
        <ele>246</ele>
        <time>2024-03-21T11:14:02Z</time>
      </trkpt>
      <trkpt lat="45.4882" lon="1.05654">
        <ele>247</ele>
        <time>2024-03-21T11:14:11Z</time>
      </trkpt>
      <trkpt lat="45.48698" lon="1.05587">
        <ele>246</ele>
        <time>2024-03-21T11:14:34Z</time>
      </trkpt>
      <trkpt lat="45.48665" lon="1.05578">
        <ele>247</ele>
        <time>2024-03-21T11:14:40Z</time>
      </trkpt>
      <trkpt lat="45.48644" lon="1.05582">
        <ele>246</ele>
        <time>2024-03-21T11:14:44Z</time>
      </trkpt>
      <trkpt lat="45.48632" lon="1.05589">
        <ele>246</ele>
        <time>2024-03-21T11:14:46Z</time>
      </trkpt>
      <trkpt lat="45.4861" lon="1.0561">
        <ele>247</ele>
        <time>2024-03-21T11:14:51Z</time>
      </trkpt>
      <trkpt lat="45.48586" lon="1.05646">
        <ele>250</ele>
        <time>2024-03-21T11:14:57Z</time>
      </trkpt>
      <trkpt lat="45.48556" lon="1.05676">
        <ele>255</ele>
        <time>2024-03-21T11:15:03Z</time>
      </trkpt>
      <trkpt lat="45.48551" lon="1.05678">
        <ele>256</ele>
        <time>2024-03-21T11:15:04Z</time>
      </trkpt>
      <trkpt lat="45.48545" lon="1.05674">
        <ele>256</ele>
        <time>2024-03-21T11:15:06Z</time>
      </trkpt>
      <trkpt lat="45.48512" lon="1.05628">
        <ele>252</ele>
        <time>2024-03-21T11:15:14Z</time>
      </trkpt>
      <trkpt lat="45.4848" lon="1.05596">
        <ele>250</ele>
        <time>2024-03-21T11:15:21Z</time>
      </trkpt>
      <trkpt lat="45.48458" lon="1.0558">
        <ele>250</ele>
        <time>2024-03-21T11:15:25Z</time>
      </trkpt>
      <trkpt lat="45.4843" lon="1.0557">
        <ele>251</ele>
        <time>2024-03-21T11:15:30Z</time>
      </trkpt>
      <trkpt lat="45.48399" lon="1.0557">
        <ele>253</ele>
        <time>2024-03-21T11:15:36Z</time>
      </trkpt>
      <trkpt lat="45.48368" lon="1.05577">
        <ele>257</ele>
        <time>2024-03-21T11:15:41Z</time>
      </trkpt>
      <trkpt lat="45.48345" lon="1.05579">
        <ele>259</ele>
        <time>2024-03-21T11:15:45Z</time>
      </trkpt>
      <trkpt lat="45.48331" lon="1.05579">
        <ele>259</ele>
        <time>2024-03-21T11:15:48Z</time>
      </trkpt>
      <trkpt lat="45.48325" lon="1.05577">
        <ele>260</ele>
        <time>2024-03-21T11:15:49Z</time>
      </trkpt>
      <trkpt lat="45.4832" lon="1.0557">
        <ele>259</ele>
        <time>2024-03-21T11:15:50Z</time>
      </trkpt>
      <trkpt lat="45.48313" lon="1.05548">
        <ele>257</ele>
        <time>2024-03-21T11:15:53Z</time>
      </trkpt>
      <trkpt lat="45.48295" lon="1.05506">
        <ele>254</ele>
        <time>2024-03-21T11:15:59Z</time>
      </trkpt>
      <trkpt lat="45.48261" lon="1.05462">
        <ele>256</ele>
        <time>2024-03-21T11:16:08Z</time>
      </trkpt>
      <trkpt lat="45.48251" lon="1.05446">
        <ele>257</ele>
        <time>2024-03-21T11:16:10Z</time>
      </trkpt>
      <trkpt lat="45.48243" lon="1.05419">
        <ele>255</ele>
        <time>2024-03-21T11:16:14Z</time>
      </trkpt>
      <trkpt lat="45.48228" lon="1.05354">
        <ele>248</ele>
        <time>2024-03-21T11:16:22Z</time>
      </trkpt>
      <trkpt lat="45.48221" lon="1.05337">
        <ele>247</ele>
        <time>2024-03-21T11:16:25Z</time>
      </trkpt>
      <trkpt lat="45.48212" lon="1.05324">
        <ele>247</ele>
        <time>2024-03-21T11:16:27Z</time>
      </trkpt>
      <trkpt lat="45.48201" lon="1.05313">
        <ele>247</ele>
        <time>2024-03-21T11:16:30Z</time>
      </trkpt>
      <trkpt lat="45.48193" lon="1.05309">
        <ele>248</ele>
        <time>2024-03-21T11:16:31Z</time>
      </trkpt>
      <trkpt lat="45.48182" lon="1.0531">
        <ele>249</ele>
        <time>2024-03-21T11:16:33Z</time>
      </trkpt>
      <trkpt lat="45.48175" lon="1.05315">
        <ele>250</ele>
        <time>2024-03-21T11:16:34Z</time>
      </trkpt>
      <trkpt lat="45.48167" lon="1.05325">
        <ele>252</ele>
        <time>2024-03-21T11:16:36Z</time>
      </trkpt>
      <trkpt lat="45.48125" lon="1.05427">
        <ele>260</ele>
        <time>2024-03-21T11:16:51Z</time>
      </trkpt>
      <trkpt lat="45.48115" lon="1.05439">
        <ele>261</ele>
        <time>2024-03-21T11:16:53Z</time>
      </trkpt>
      <trkpt lat="45.48106" lon="1.05442">
        <ele>261</ele>
        <time>2024-03-21T11:16:55Z</time>
      </trkpt>
      <trkpt lat="45.48097" lon="1.05441">
        <ele>260</ele>
        <time>2024-03-21T11:16:57Z</time>
      </trkpt>
      <trkpt lat="45.48088" lon="1.05434">
        <ele>260</ele>
        <time>2024-03-21T11:16:59Z</time>
      </trkpt>
      <trkpt lat="45.48081" lon="1.0542">
        <ele>260</ele>
        <time>2024-03-21T11:17:01Z</time>
      </trkpt>
      <trkpt lat="45.48076" lon="1.05399">
        <ele>261</ele>
        <time>2024-03-21T11:17:03Z</time>
      </trkpt>
      <trkpt lat="45.4807" lon="1.05352">
        <ele>260</ele>
        <time>2024-03-21T11:17:09Z</time>
      </trkpt>
      <trkpt lat="45.48065" lon="1.05296">
        <ele>259</ele>
        <time>2024-03-21T11:17:16Z</time>
      </trkpt>
      <trkpt lat="45.48059" lon="1.05271">
        <ele>259</ele>
        <time>2024-03-21T11:17:20Z</time>
      </trkpt>
      <trkpt lat="45.48048" lon="1.05254">
        <ele>260</ele>
        <time>2024-03-21T11:17:23Z</time>
      </trkpt>
      <trkpt lat="45.48032" lon="1.0524">
        <ele>261</ele>
        <time>2024-03-21T11:17:26Z</time>
      </trkpt>
      <trkpt lat="45.48018" lon="1.05232">
        <ele>262</ele>
        <time>2024-03-21T11:17:29Z</time>
      </trkpt>
      <trkpt lat="45.47952" lon="1.05214">
        <ele>266</ele>
        <time>2024-03-21T11:17:41Z</time>
      </trkpt>
      <trkpt lat="45.47891" lon="1.0518">
        <ele>269</ele>
        <time>2024-03-21T11:17:52Z</time>
      </trkpt>
      <trkpt lat="45.47871" lon="1.05167">
        <ele>270</ele>
        <time>2024-03-21T11:17:56Z</time>
      </trkpt>
      <trkpt lat="45.47857" lon="1.05162">
        <ele>270</ele>
        <time>2024-03-21T11:17:59Z</time>
      </trkpt>
      <trkpt lat="45.47843" lon="1.05163">
        <ele>271</ele>
        <time>2024-03-21T11:18:01Z</time>
      </trkpt>
      <trkpt lat="45.47835" lon="1.05167">
        <ele>272</ele>
        <time>2024-03-21T11:18:03Z</time>
      </trkpt>
      <trkpt lat="45.47808" lon="1.05199">
        <ele>271</ele>
        <time>2024-03-21T11:18:09Z</time>
      </trkpt>
      <trkpt lat="45.47798" lon="1.05218">
        <ele>271</ele>
        <time>2024-03-21T11:18:12Z</time>
      </trkpt>
      <trkpt lat="45.47788" lon="1.05242">
        <ele>271</ele>
        <time>2024-03-21T11:18:15Z</time>
      </trkpt>
      <trkpt lat="45.47781" lon="1.05269">
        <ele>272</ele>
        <time>2024-03-21T11:18:19Z</time>
      </trkpt>
      <trkpt lat="45.47776" lon="1.053">
        <ele>273</ele>
        <time>2024-03-21T11:18:23Z</time>
      </trkpt>
      <trkpt lat="45.47772" lon="1.05389">
        <ele>278</ele>
        <time>2024-03-21T11:18:34Z</time>
      </trkpt>
      <trkpt lat="45.47766" lon="1.05412">
        <ele>279</ele>
        <time>2024-03-21T11:18:37Z</time>
      </trkpt>
      <trkpt lat="45.47759" lon="1.05427">
        <ele>279</ele>
        <time>2024-03-21T11:18:39Z</time>
      </trkpt>
      <trkpt lat="45.4775" lon="1.05431">
        <ele>279</ele>
        <time>2024-03-21T11:18:41Z</time>
      </trkpt>
      <trkpt lat="45.47742" lon="1.0543">
        <ele>279</ele>
        <time>2024-03-21T11:18:43Z</time>
      </trkpt>
      <trkpt lat="45.47728" lon="1.05424">
        <ele>279</ele>
        <time>2024-03-21T11:18:45Z</time>
      </trkpt>
      <trkpt lat="45.47717" lon="1.05413">
        <ele>279</ele>
        <time>2024-03-21T11:18:48Z</time>
      </trkpt>
      <trkpt lat="45.47569" lon="1.05248">
        <ele>278</ele>
        <time>2024-03-21T11:19:21Z</time>
      </trkpt>
      <trkpt lat="45.47559" lon="1.05239">
        <ele>277</ele>
        <time>2024-03-21T11:19:23Z</time>
      </trkpt>
      <trkpt lat="45.47548" lon="1.05235">
        <ele>277</ele>
        <time>2024-03-21T11:19:25Z</time>
      </trkpt>
      <trkpt lat="45.47536" lon="1.05234">
        <ele>277</ele>
        <time>2024-03-21T11:19:27Z</time>
      </trkpt>
      <trkpt lat="45.47523" lon="1.05236">
        <ele>277</ele>
        <time>2024-03-21T11:19:30Z</time>
      </trkpt>
      <trkpt lat="45.47514" lon="1.0524">
        <ele>278</ele>
        <time>2024-03-21T11:19:31Z</time>
      </trkpt>
      <trkpt lat="45.47424" lon="1.05295">
        <ele>282</ele>
        <time>2024-03-21T11:19:49Z</time>
      </trkpt>
      <trkpt lat="45.47409" lon="1.05297">
        <ele>284</ele>
        <time>2024-03-21T11:19:51Z</time>
      </trkpt>
      <trkpt lat="45.47395" lon="1.05294">
        <ele>286</ele>
        <time>2024-03-21T11:19:54Z</time>
      </trkpt>
      <trkpt lat="45.47384" lon="1.05286">
        <ele>288</ele>
        <time>2024-03-21T11:19:56Z</time>
      </trkpt>
      <trkpt lat="45.47373" lon="1.05273">
        <ele>289</ele>
        <time>2024-03-21T11:19:59Z</time>
      </trkpt>
      <trkpt lat="45.47359" lon="1.05238">
        <ele>289</ele>
        <time>2024-03-21T11:20:04Z</time>
      </trkpt>
      <trkpt lat="45.47347" lon="1.05204">
        <ele>290</ele>
        <time>2024-03-21T11:20:08Z</time>
      </trkpt>
      <trkpt lat="45.47292" lon="1.04998">
        <ele>293</ele>
        <time>2024-03-21T11:20:36Z</time>
      </trkpt>
      <trkpt lat="45.47266" lon="1.04937">
        <ele>293</ele>
        <time>2024-03-21T11:20:45Z</time>
      </trkpt>
      <trkpt lat="45.47248" lon="1.04907">
        <ele>293</ele>
        <time>2024-03-21T11:20:50Z</time>
      </trkpt>
      <trkpt lat="45.47234" lon="1.0489">
        <ele>293</ele>
        <time>2024-03-21T11:20:53Z</time>
      </trkpt>
      <trkpt lat="45.47214" lon="1.04877">
        <ele>294</ele>
        <time>2024-03-21T11:20:57Z</time>
      </trkpt>
      <trkpt lat="45.47137" lon="1.04855">
        <ele>296</ele>
        <time>2024-03-21T11:21:11Z</time>
      </trkpt>
      <trkpt lat="45.47051" lon="1.04854">
        <ele>297</ele>
        <time>2024-03-21T11:21:26Z</time>
      </trkpt>
      <trkpt lat="45.47" lon="1.04857">
        <ele>297</ele>
        <time>2024-03-21T11:21:35Z</time>
      </trkpt>
      <trkpt lat="45.46983" lon="1.04862">
        <ele>298</ele>
        <time>2024-03-21T11:21:38Z</time>
      </trkpt>
      <trkpt lat="45.46971" lon="1.04872">
        <ele>298</ele>
        <time>2024-03-21T11:21:41Z</time>
      </trkpt>
      <trkpt lat="45.46959" lon="1.04892">
        <ele>299</ele>
        <time>2024-03-21T11:21:44Z</time>
      </trkpt>
      <trkpt lat="45.46942" lon="1.04954">
        <ele>302</ele>
        <time>2024-03-21T11:21:52Z</time>
      </trkpt>
      <trkpt lat="45.46934" lon="1.04977">
        <ele>303</ele>
        <time>2024-03-21T11:21:56Z</time>
      </trkpt>
      <trkpt lat="45.46923" lon="1.04997">
        <ele>304</ele>
        <time>2024-03-21T11:21:59Z</time>
      </trkpt>
      <trkpt lat="45.4691" lon="1.05007">
        <ele>305</ele>
        <time>2024-03-21T11:22:01Z</time>
      </trkpt>
      <trkpt lat="45.46888" lon="1.05018">
        <ele>305</ele>
        <time>2024-03-21T11:22:06Z</time>
      </trkpt>
      <trkpt lat="45.46847" lon="1.05025">
        <ele>305</ele>
        <time>2024-03-21T11:22:13Z</time>
      </trkpt>
      <trkpt lat="45.46786" lon="1.0504">
        <ele>304</ele>
        <time>2024-03-21T11:22:24Z</time>
      </trkpt>
      <trkpt lat="45.4677" lon="1.05048">
        <ele>304</ele>
        <time>2024-03-21T11:22:27Z</time>
      </trkpt>
      <trkpt lat="45.46757" lon="1.05058">
        <ele>304</ele>
        <time>2024-03-21T11:22:30Z</time>
      </trkpt>
      <trkpt lat="45.46747" lon="1.05073">
        <ele>304</ele>
        <time>2024-03-21T11:22:32Z</time>
      </trkpt>
      <trkpt lat="45.46741" lon="1.05092">
        <ele>304</ele>
        <time>2024-03-21T11:22:35Z</time>
      </trkpt>
      <trkpt lat="45.46737" lon="1.05111">
        <ele>304</ele>
        <time>2024-03-21T11:22:37Z</time>
      </trkpt>
      <trkpt lat="45.46724" lon="1.0521">
        <ele>306</ele>
        <time>2024-03-21T11:22:50Z</time>
      </trkpt>
      <trkpt lat="45.46717" lon="1.05246">
        <ele>306</ele>
        <time>2024-03-21T11:22:54Z</time>
      </trkpt>
      <trkpt lat="45.46706" lon="1.05282">
        <ele>306</ele>
        <time>2024-03-21T11:22:59Z</time>
      </trkpt>
      <trkpt lat="45.46687" lon="1.05315">
        <ele>305</ele>
        <time>2024-03-21T11:23:05Z</time>
      </trkpt>
      <trkpt lat="45.46581" lon="1.05437">
        <ele>303</ele>
        <time>2024-03-21T11:23:29Z</time>
      </trkpt>
      <trkpt lat="45.4657" lon="1.05455">
        <ele>302</ele>
        <time>2024-03-21T11:23:32Z</time>
      </trkpt>
      <trkpt lat="45.46563" lon="1.05473">
        <ele>301</ele>
        <time>2024-03-21T11:23:34Z</time>
      </trkpt>
      <trkpt lat="45.46558" lon="1.05488">
        <ele>301</ele>
        <time>2024-03-21T11:23:36Z</time>
      </trkpt>
      <trkpt lat="45.46557" lon="1.05509">
        <ele>301</ele>
        <time>2024-03-21T11:23:39Z</time>
      </trkpt>
      <trkpt lat="45.46562" lon="1.05596">
        <ele>300</ele>
        <time>2024-03-21T11:23:50Z</time>
      </trkpt>
      <trkpt lat="45.46557" lon="1.05636">
        <ele>301</ele>
        <time>2024-03-21T11:23:55Z</time>
      </trkpt>
      <trkpt lat="45.46546" lon="1.0566">
        <ele>301</ele>
        <time>2024-03-21T11:23:59Z</time>
      </trkpt>
      <trkpt lat="45.4653" lon="1.05684">
        <ele>300</ele>
        <time>2024-03-21T11:24:03Z</time>
      </trkpt>
      <trkpt lat="45.46514" lon="1.05697">
        <ele>300</ele>
        <time>2024-03-21T11:24:06Z</time>
      </trkpt>
      <trkpt lat="45.46496" lon="1.05707">
        <ele>299</ele>
        <time>2024-03-21T11:24:10Z</time>
      </trkpt>
      <trkpt lat="45.46469" lon="1.05716">
        <ele>298</ele>
        <time>2024-03-21T11:24:14Z</time>
      </trkpt>
      <trkpt lat="45.46439" lon="1.0572">
        <ele>297</ele>
        <time>2024-03-21T11:24:20Z</time>
      </trkpt>
      <trkpt lat="45.46411" lon="1.05718">
        <ele>297</ele>
        <time>2024-03-21T11:24:25Z</time>
      </trkpt>
      <trkpt lat="45.46396" lon="1.05708">
        <ele>297</ele>
        <time>2024-03-21T11:24:28Z</time>
      </trkpt>
      <trkpt lat="45.46379" lon="1.05691">
        <ele>298</ele>
        <time>2024-03-21T11:24:31Z</time>
      </trkpt>
      <trkpt lat="45.46224" lon="1.0551">
        <ele>305</ele>
        <time>2024-03-21T11:25:07Z</time>
      </trkpt>
      <trkpt lat="45.46195" lon="1.0546">
        <ele>304</ele>
        <time>2024-03-21T11:25:15Z</time>
      </trkpt>
      <trkpt lat="45.46175" lon="1.0542">
        <ele>303</ele>
        <time>2024-03-21T11:25:21Z</time>
      </trkpt>
      <trkpt lat="45.46077" lon="1.0521">
        <ele>303</ele>
        <time>2024-03-21T11:25:53Z</time>
      </trkpt>
      <trkpt lat="45.46054" lon="1.05178">
        <ele>303</ele>
        <time>2024-03-21T11:25:59Z</time>
      </trkpt>
      <trkpt lat="45.46013" lon="1.0513">
        <ele>302</ele>
        <time>2024-03-21T11:26:08Z</time>
      </trkpt>
      <trkpt lat="45.45905" lon="1.05011">
        <ele>303</ele>
        <time>2024-03-21T11:26:32Z</time>
      </trkpt>
      <trkpt lat="45.45873" lon="1.0498">
        <ele>303</ele>
        <time>2024-03-21T11:26:39Z</time>
      </trkpt>
      <trkpt lat="45.4583" lon="1.04948">
        <ele>303</ele>
        <time>2024-03-21T11:26:48Z</time>
      </trkpt>
      <trkpt lat="45.4576" lon="1.04902">
        <ele>301</ele>
        <time>2024-03-21T11:27:01Z</time>
      </trkpt>
      <trkpt lat="45.45678" lon="1.04851">
        <ele>301</ele>
        <time>2024-03-21T11:27:17Z</time>
      </trkpt>
      <trkpt lat="45.45633" lon="1.0482">
        <ele>300</ele>
        <time>2024-03-21T11:27:26Z</time>
      </trkpt>
      <trkpt lat="45.4559" lon="1.04801">
        <ele>299</ele>
        <time>2024-03-21T11:27:34Z</time>
      </trkpt>
      <trkpt lat="45.45494" lon="1.04783">
        <ele>298</ele>
        <time>2024-03-21T11:27:52Z</time>
      </trkpt>
      <trkpt lat="45.45401" lon="1.04762">
        <ele>296</ele>
        <time>2024-03-21T11:28:08Z</time>
      </trkpt>
      <trkpt lat="45.45171" lon="1.04685">
        <ele>296</ele>
        <time>2024-03-21T11:28:50Z</time>
      </trkpt>
      <trkpt lat="45.44979" lon="1.04621">
        <ele>294</ele>
        <time>2024-03-21T11:29:25Z</time>
      </trkpt>
      <trkpt lat="45.44918" lon="1.0461">
        <ele>297</ele>
        <time>2024-03-21T11:29:36Z</time>
      </trkpt>
      <trkpt lat="45.44659" lon="1.04582">
        <ele>304</ele>
        <time>2024-03-21T11:30:23Z</time>
      </trkpt>
      <trkpt lat="45.44631" lon="1.04585">
        <ele>306</ele>
        <time>2024-03-21T11:30:28Z</time>
      </trkpt>
      <trkpt lat="45.44564" lon="1.04615">
        <ele>305</ele>
        <time>2024-03-21T11:30:40Z</time>
      </trkpt>
      <trkpt lat="45.44495" lon="1.04646">
        <ele>307</ele>
        <time>2024-03-21T11:30:53Z</time>
      </trkpt>
      <trkpt lat="45.44464" lon="1.04654">
        <ele>304</ele>
        <time>2024-03-21T11:30:59Z</time>
      </trkpt>
      <trkpt lat="45.44454" lon="1.04654">
        <ele>303</ele>
        <time>2024-03-21T11:31:00Z</time>
      </trkpt>
      <trkpt lat="45.44441" lon="1.04647">
        <ele>303</ele>
        <time>2024-03-21T11:31:03Z</time>
      </trkpt>
      <trkpt lat="45.44418" lon="1.04619">
        <ele>303</ele>
        <time>2024-03-21T11:31:08Z</time>
      </trkpt>
      <trkpt lat="45.44407" lon="1.04599">
        <ele>303</ele>
        <time>2024-03-21T11:31:11Z</time>
      </trkpt>
      <trkpt lat="45.44388" lon="1.04548">
        <ele>302</ele>
        <time>2024-03-21T11:31:19Z</time>
      </trkpt>
      <trkpt lat="45.44384" lon="1.04532">
        <ele>302</ele>
        <time>2024-03-21T11:31:21Z</time>
      </trkpt>
      <trkpt lat="45.44382" lon="1.04489">
        <ele>303</ele>
        <time>2024-03-21T11:31:26Z</time>
      </trkpt>
      <trkpt lat="45.44388" lon="1.04466">
        <ele>305</ele>
        <time>2024-03-21T11:31:29Z</time>
      </trkpt>
      <trkpt lat="45.4439" lon="1.04444">
        <ele>305</ele>
        <time>2024-03-21T11:31:32Z</time>
      </trkpt>
      <trkpt lat="45.4439" lon="1.04423">
        <ele>305</ele>
        <time>2024-03-21T11:31:34Z</time>
      </trkpt>
      <trkpt lat="45.44386" lon="1.04402">
        <ele>305</ele>
        <time>2024-03-21T11:31:37Z</time>
      </trkpt>
      <trkpt lat="45.44379" lon="1.04383">
        <ele>305</ele>
        <time>2024-03-21T11:31:40Z</time>
      </trkpt>
      <trkpt lat="45.44372" lon="1.04369">
        <ele>305</ele>
        <time>2024-03-21T11:31:42Z</time>
      </trkpt>
      <trkpt lat="45.44343" lon="1.04341">
        <ele>304</ele>
        <time>2024-03-21T11:31:48Z</time>
      </trkpt>
      <trkpt lat="45.44335" lon="1.04324">
        <ele>304</ele>
        <time>2024-03-21T11:31:51Z</time>
      </trkpt>
      <trkpt lat="45.44316" lon="1.04257">
        <ele>305</ele>
        <time>2024-03-21T11:32:00Z</time>
      </trkpt>
      <trkpt lat="45.44284" lon="1.04175">
        <ele>305</ele>
        <time>2024-03-21T11:32:12Z</time>
      </trkpt>
      <trkpt lat="45.44278" lon="1.04151">
        <ele>305</ele>
        <time>2024-03-21T11:32:15Z</time>
      </trkpt>
      <trkpt lat="45.44275" lon="1.04122">
        <ele>305</ele>
        <time>2024-03-21T11:32:18Z</time>
      </trkpt>
      <trkpt lat="45.4429" lon="1.04025">
        <ele>306</ele>
        <time>2024-03-21T11:32:31Z</time>
      </trkpt>
      <trkpt lat="45.44291" lon="1.04001">
        <ele>306</ele>
        <time>2024-03-21T11:32:34Z</time>
      </trkpt>
      <trkpt lat="45.44289" lon="1.03979">
        <ele>306</ele>
        <time>2024-03-21T11:32:37Z</time>
      </trkpt>
      <trkpt lat="45.44285" lon="1.03954">
        <ele>307</ele>
        <time>2024-03-21T11:32:40Z</time>
      </trkpt>
      <trkpt lat="45.44276" lon="1.03935">
        <ele>307</ele>
        <time>2024-03-21T11:32:43Z</time>
      </trkpt>
      <trkpt lat="45.44265" lon="1.0392">
        <ele>306</ele>
        <time>2024-03-21T11:32:45Z</time>
      </trkpt>
      <trkpt lat="45.44232" lon="1.0388">
        <ele>303</ele>
        <time>2024-03-21T11:32:53Z</time>
      </trkpt>
      <trkpt lat="45.44218" lon="1.03838">
        <ele>303</ele>
        <time>2024-03-21T11:32:59Z</time>
      </trkpt>
      <trkpt lat="45.44204" lon="1.0378">
        <ele>303</ele>
        <time>2024-03-21T11:33:06Z</time>
      </trkpt>
      <trkpt lat="45.44194" lon="1.03756">
        <ele>303</ele>
        <time>2024-03-21T11:33:10Z</time>
      </trkpt>
      <trkpt lat="45.44164" lon="1.03715">
        <ele>302</ele>
        <time>2024-03-21T11:33:17Z</time>
      </trkpt>
      <trkpt lat="45.44155" lon="1.03698">
        <ele>302</ele>
        <time>2024-03-21T11:33:20Z</time>
      </trkpt>
      <trkpt lat="45.44147" lon="1.03675">
        <ele>302</ele>
        <time>2024-03-21T11:33:23Z</time>
      </trkpt>
      <trkpt lat="45.4414" lon="1.03611">
        <ele>303</ele>
        <time>2024-03-21T11:33:31Z</time>
      </trkpt>
      <trkpt lat="45.44125" lon="1.0357">
        <ele>304</ele>
        <time>2024-03-21T11:33:37Z</time>
      </trkpt>
      <trkpt lat="45.44115" lon="1.03555">
        <ele>304</ele>
        <time>2024-03-21T11:33:40Z</time>
      </trkpt>
      <trkpt lat="45.44099" lon="1.03537">
        <ele>304</ele>
        <time>2024-03-21T11:33:43Z</time>
      </trkpt>
      <trkpt lat="45.44081" lon="1.03523">
        <ele>303</ele>
        <time>2024-03-21T11:33:47Z</time>
      </trkpt>
      <trkpt lat="45.44041" lon="1.03505">
        <ele>301</ele>
        <time>2024-03-21T11:33:54Z</time>
      </trkpt>
      <trkpt lat="45.43861" lon="1.03443">
        <ele>297</ele>
        <time>2024-03-21T11:34:27Z</time>
      </trkpt>
      <trkpt lat="45.43846" lon="1.03434">
        <ele>297</ele>
        <time>2024-03-21T11:34:30Z</time>
      </trkpt>
      <trkpt lat="45.43828" lon="1.03407">
        <ele>297</ele>
        <time>2024-03-21T11:34:35Z</time>
      </trkpt>
      <trkpt lat="45.43819" lon="1.03371">
        <ele>297</ele>
        <time>2024-03-21T11:34:40Z</time>
      </trkpt>
      <trkpt lat="45.43785" lon="1.03192">
        <ele>296</ele>
        <time>2024-03-21T11:35:03Z</time>
      </trkpt>
      <trkpt lat="45.43783" lon="1.03147">
        <ele>297</ele>
        <time>2024-03-21T11:35:08Z</time>
      </trkpt>
      <trkpt lat="45.43786" lon="1.0307">
        <ele>296</ele>
        <time>2024-03-21T11:35:18Z</time>
      </trkpt>
      <trkpt lat="45.43785" lon="1.0305">
        <ele>296</ele>
        <time>2024-03-21T11:35:21Z</time>
      </trkpt>
      <trkpt lat="45.43779" lon="1.03035">
        <ele>296</ele>
        <time>2024-03-21T11:35:23Z</time>
      </trkpt>
      <trkpt lat="45.43768" lon="1.03013">
        <ele>295</ele>
        <time>2024-03-21T11:35:26Z</time>
      </trkpt>
      <trkpt lat="45.43756" lon="1.02995">
        <ele>294</ele>
        <time>2024-03-21T11:35:29Z</time>
      </trkpt>
      <trkpt lat="45.43688" lon="1.02929">
        <ele>298</ele>
        <time>2024-03-21T11:35:44Z</time>
      </trkpt>
      <trkpt lat="45.43669" lon="1.02915">
        <ele>299</ele>
        <time>2024-03-21T11:35:48Z</time>
      </trkpt>
      <trkpt lat="45.43642" lon="1.02902">
        <ele>299</ele>
        <time>2024-03-21T11:35:53Z</time>
      </trkpt>
      <trkpt lat="45.43656" lon="1.02889">
        <ele>300</ele>
        <time>2024-03-21T11:35:56Z</time>
      </trkpt>
      <trkpt lat="45.43675" lon="1.02868">
        <ele>301</ele>
        <time>2024-03-21T11:36:00Z</time>
      </trkpt>
      <trkpt lat="45.43694" lon="1.02819">
        <ele>304</ele>
        <time>2024-03-21T11:36:07Z</time>
      </trkpt>
      <trkpt lat="45.43709" lon="1.02798">
        <ele>305</ele>
        <time>2024-03-21T11:36:11Z</time>
      </trkpt>
      <trkpt lat="45.4373" lon="1.02775">
        <ele>306</ele>
        <time>2024-03-21T11:36:15Z</time>
      </trkpt>
      <trkpt lat="45.43763" lon="1.02748">
        <ele>309</ele>
        <time>2024-03-21T11:36:22Z</time>
      </trkpt>
      <trkpt lat="45.43776" lon="1.02739">
        <ele>310</ele>
        <time>2024-03-21T11:36:25Z</time>
      </trkpt>
      <trkpt lat="45.43793" lon="1.02736">
        <ele>311</ele>
        <time>2024-03-21T11:36:28Z</time>
      </trkpt>
      <trkpt lat="45.43816" lon="1.02746">
        <ele>311</ele>
        <time>2024-03-21T11:36:32Z</time>
      </trkpt>
      <trkpt lat="45.43835" lon="1.02751">
        <ele>312</ele>
        <time>2024-03-21T11:36:36Z</time>
      </trkpt>
      <trkpt lat="45.43855" lon="1.02744">
        <ele>313</ele>
        <time>2024-03-21T11:36:39Z</time>
      </trkpt>
      <trkpt lat="45.43919" lon="1.02696">
        <ele>317</ele>
        <time>2024-03-21T11:36:52Z</time>
      </trkpt>
      <trkpt lat="45.43928" lon="1.0268">
        <ele>318</ele>
        <time>2024-03-21T11:36:55Z</time>
      </trkpt>
      <trkpt lat="45.43934" lon="1.02664">
        <ele>318</ele>
        <time>2024-03-21T11:36:57Z</time>
      </trkpt>
      <trkpt lat="45.43937" lon="1.02639">
        <ele>318</ele>
        <time>2024-03-21T11:37:00Z</time>
      </trkpt>
      <trkpt lat="45.43937" lon="1.026">
        <ele>317</ele>
        <time>2024-03-21T11:37:05Z</time>
      </trkpt>
      <trkpt lat="45.43939" lon="1.0257">
        <ele>318</ele>
        <time>2024-03-21T11:37:09Z</time>
      </trkpt>
      <trkpt lat="45.43944" lon="1.02553">
        <ele>318</ele>
        <time>2024-03-21T11:37:11Z</time>
      </trkpt>
      <trkpt lat="45.43953" lon="1.02534">
        <ele>318</ele>
        <time>2024-03-21T11:37:14Z</time>
      </trkpt>
      <trkpt lat="45.43977" lon="1.02502">
        <ele>316</ele>
        <time>2024-03-21T11:37:20Z</time>
      </trkpt>
      <trkpt lat="45.44002" lon="1.02472">
        <ele>314</ele>
        <time>2024-03-21T11:37:26Z</time>
      </trkpt>
      <trkpt lat="45.44022" lon="1.02452">
        <ele>313</ele>
        <time>2024-03-21T11:37:30Z</time>
      </trkpt>
      <trkpt lat="45.44031" lon="1.02439">
        <ele>312</ele>
        <time>2024-03-21T11:37:32Z</time>
      </trkpt>
      <trkpt lat="45.44038" lon="1.0242">
        <ele>312</ele>
        <time>2024-03-21T11:37:35Z</time>
      </trkpt>
      <trkpt lat="45.44045" lon="1.0236">
        <ele>312</ele>
        <time>2024-03-21T11:37:42Z</time>
      </trkpt>
      <trkpt lat="45.44064" lon="1.0227">
        <ele>313</ele>
        <time>2024-03-21T11:37:54Z</time>
      </trkpt>
      <trkpt lat="45.44081" lon="1.02181">
        <ele>316</ele>
        <time>2024-03-21T11:38:06Z</time>
      </trkpt>
      <trkpt lat="45.4408" lon="1.0213">
        <ele>317</ele>
        <time>2024-03-21T11:38:12Z</time>
      </trkpt>
      <trkpt lat="45.44069" lon="1.02048">
        <ele>316</ele>
        <time>2024-03-21T11:38:22Z</time>
      </trkpt>
      <trkpt lat="45.44071" lon="1.02023">
        <ele>316</ele>
        <time>2024-03-21T11:38:26Z</time>
      </trkpt>
      <trkpt lat="45.44082" lon="1.01972">
        <ele>315</ele>
        <time>2024-03-21T11:38:32Z</time>
      </trkpt>
      <trkpt lat="45.44109" lon="1.01876">
        <ele>310</ele>
        <time>2024-03-21T11:38:45Z</time>
      </trkpt>
      <trkpt lat="45.44127" lon="1.01822">
        <ele>309</ele>
        <time>2024-03-21T11:38:53Z</time>
      </trkpt>
      <trkpt lat="45.44133" lon="1.01797">
        <ele>308</ele>
        <time>2024-03-21T11:38:56Z</time>
      </trkpt>
      <trkpt lat="45.44138" lon="1.01767">
        <ele>307</ele>
        <time>2024-03-21T11:39:00Z</time>
      </trkpt>
      <trkpt lat="45.44141" lon="1.01712">
        <ele>306</ele>
        <time>2024-03-21T11:39:07Z</time>
      </trkpt>
      <trkpt lat="45.44144" lon="1.01613">
        <ele>307</ele>
        <time>2024-03-21T11:39:19Z</time>
      </trkpt>
      <trkpt lat="45.44141" lon="1.01595">
        <ele>307</ele>
        <time>2024-03-21T11:39:21Z</time>
      </trkpt>
      <trkpt lat="45.44093" lon="1.01418">
        <ele>305</ele>
        <time>2024-03-21T11:39:45Z</time>
      </trkpt>
      <trkpt lat="45.44074" lon="1.01277">
        <ele>306</ele>
        <time>2024-03-21T11:40:03Z</time>
      </trkpt>
      <trkpt lat="45.44068" lon="1.01252">
        <ele>306</ele>
        <time>2024-03-21T11:40:06Z</time>
      </trkpt>
      <trkpt lat="45.4406" lon="1.0123">
        <ele>306</ele>
        <time>2024-03-21T11:40:09Z</time>
      </trkpt>
      <trkpt lat="45.44053" lon="1.01217">
        <ele>306</ele>
        <time>2024-03-21T11:40:11Z</time>
      </trkpt>
      <trkpt lat="45.4404" lon="1.01198">
        <ele>307</ele>
        <time>2024-03-21T11:40:15Z</time>
      </trkpt>
      <trkpt lat="45.44023" lon="1.01182">
        <ele>307</ele>
        <time>2024-03-21T11:40:18Z</time>
      </trkpt>
      <trkpt lat="45.43987" lon="1.01155">
        <ele>307</ele>
        <time>2024-03-21T11:40:26Z</time>
      </trkpt>
      <trkpt lat="45.43963" lon="1.01133">
        <ele>307</ele>
        <time>2024-03-21T11:40:31Z</time>
      </trkpt>
      <trkpt lat="45.43947" lon="1.01109">
        <ele>307</ele>
        <time>2024-03-21T11:40:35Z</time>
      </trkpt>
      <trkpt lat="45.43934" lon="1.01083">
        <ele>307</ele>
        <time>2024-03-21T11:40:39Z</time>
      </trkpt>
      <trkpt lat="45.43925" lon="1.01033">
        <ele>308</ele>
        <time>2024-03-21T11:40:45Z</time>
      </trkpt>
      <trkpt lat="45.43923" lon="1.00996">
        <ele>309</ele>
        <time>2024-03-21T11:40:50Z</time>
      </trkpt>
      <trkpt lat="45.4392" lon="1.00974">
        <ele>309</ele>
        <time>2024-03-21T11:40:53Z</time>
      </trkpt>
      <trkpt lat="45.43911" lon="1.0095">
        <ele>308</ele>
        <time>2024-03-21T11:40:56Z</time>
      </trkpt>
      <trkpt lat="45.43901" lon="1.00932">
        <ele>308</ele>
        <time>2024-03-21T11:40:59Z</time>
      </trkpt>
      <trkpt lat="45.43883" lon="1.00907">
        <ele>307</ele>
        <time>2024-03-21T11:41:03Z</time>
      </trkpt>
      <trkpt lat="45.43871" lon="1.00884">
        <ele>306</ele>
        <time>2024-03-21T11:41:07Z</time>
      </trkpt>
      <trkpt lat="45.43856" lon="1.00835">
        <ele>307</ele>
        <time>2024-03-21T11:41:14Z</time>
      </trkpt>
      <trkpt lat="45.43847" lon="1.00814">
        <ele>307</ele>
        <time>2024-03-21T11:41:17Z</time>
      </trkpt>
      <trkpt lat="45.43833" lon="1.00792">
        <ele>306</ele>
        <time>2024-03-21T11:41:20Z</time>
      </trkpt>
      <trkpt lat="45.43816" lon="1.00772">
        <ele>306</ele>
        <time>2024-03-21T11:41:24Z</time>
      </trkpt>
      <trkpt lat="45.43796" lon="1.00728">
        <ele>306</ele>
        <time>2024-03-21T11:41:31Z</time>
      </trkpt>
      <trkpt lat="45.43763" lon="1.00624">
        <ele>306</ele>
        <time>2024-03-21T11:41:45Z</time>
      </trkpt>
      <trkpt lat="45.43741" lon="1.00481">
        <ele>307</ele>
        <time>2024-03-21T11:42:03Z</time>
      </trkpt>
      <trkpt lat="45.43738" lon="1.00451">
        <ele>306</ele>
        <time>2024-03-21T11:42:07Z</time>
      </trkpt>
      <trkpt lat="45.43738" lon="1.00426">
        <ele>306</ele>
        <time>2024-03-21T11:42:10Z</time>
      </trkpt>
      <trkpt lat="45.43753" lon="1.00159">
        <ele>301</ele>
        <time>2024-03-21T11:42:44Z</time>
      </trkpt>
      <trkpt lat="45.43753" lon="1.00112">
        <ele>301</ele>
        <time>2024-03-21T11:42:50Z</time>
      </trkpt>
      <trkpt lat="45.43748" lon="0.99938">
        <ele>296</ele>
        <time>2024-03-21T11:43:11Z</time>
      </trkpt>
      <trkpt lat="45.43749" lon="0.99912">
        <ele>295</ele>
        <time>2024-03-21T11:43:15Z</time>
      </trkpt>
      <trkpt lat="45.43769" lon="0.99809">
        <ele>294</ele>
        <time>2024-03-21T11:43:28Z</time>
      </trkpt>
      <trkpt lat="45.4377" lon="0.99785">
        <ele>294</ele>
        <time>2024-03-21T11:43:31Z</time>
      </trkpt>
      <trkpt lat="45.4377" lon="0.99769">
        <ele>294</ele>
        <time>2024-03-21T11:43:33Z</time>
      </trkpt>
      <trkpt lat="45.43767" lon="0.99749">
        <ele>293</ele>
        <time>2024-03-21T11:43:36Z</time>
      </trkpt>
      <trkpt lat="45.43706" lon="0.99528">
        <ele>285</ele>
        <time>2024-03-21T11:44:05Z</time>
      </trkpt>
      <trkpt lat="45.43697" lon="0.99506">
        <ele>284</ele>
        <time>2024-03-21T11:44:08Z</time>
      </trkpt>
      <trkpt lat="45.43667" lon="0.99445">
        <ele>281</ele>
        <time>2024-03-21T11:44:18Z</time>
      </trkpt>
      <trkpt lat="45.43663" lon="0.99429">
        <ele>280</ele>
        <time>2024-03-21T11:44:20Z</time>
      </trkpt>
      <trkpt lat="45.43599" lon="0.99101">
        <ele>272</ele>
        <time>2024-03-21T11:45:02Z</time>
      </trkpt>
      <trkpt lat="45.43588" lon="0.99065">
        <ele>271</ele>
        <time>2024-03-21T11:45:07Z</time>
      </trkpt>
      <trkpt lat="45.43536" lon="0.98926">
        <ele>267</ele>
        <time>2024-03-21T11:45:27Z</time>
      </trkpt>
      <trkpt lat="45.43526" lon="0.9889">
        <ele>266</ele>
        <time>2024-03-21T11:45:32Z</time>
      </trkpt>
      <trkpt lat="45.43506" lon="0.98662">
        <ele>262</ele>
        <time>2024-03-21T11:46:00Z</time>
      </trkpt>
      <trkpt lat="45.43502" lon="0.98637">
        <ele>261</ele>
        <time>2024-03-21T11:46:04Z</time>
      </trkpt>
      <trkpt lat="45.43492" lon="0.98611">
        <ele>260</ele>
        <time>2024-03-21T11:46:07Z</time>
      </trkpt>
      <trkpt lat="45.43481" lon="0.98593">
        <ele>259</ele>
        <time>2024-03-21T11:46:10Z</time>
      </trkpt>
      <trkpt lat="45.43456" lon="0.98552">
        <ele>256</ele>
        <time>2024-03-21T11:46:17Z</time>
      </trkpt>
      <trkpt lat="45.43404" lon="0.98479">
        <ele>252</ele>
        <time>2024-03-21T11:46:30Z</time>
      </trkpt>
      <trkpt lat="45.43396" lon="0.98464">
        <ele>250</ele>
        <time>2024-03-21T11:46:32Z</time>
      </trkpt>
      <trkpt lat="45.43389" lon="0.98446">
        <ele>249</ele>
        <time>2024-03-21T11:46:35Z</time>
      </trkpt>
      <trkpt lat="45.43388" lon="0.98404">
        <ele>246</ele>
        <time>2024-03-21T11:46:40Z</time>
      </trkpt>
      <trkpt lat="45.43395" lon="0.98336">
        <ele>242</ele>
        <time>2024-03-21T11:46:49Z</time>
      </trkpt>
      <trkpt lat="45.43395" lon="0.98312">
        <ele>240</ele>
        <time>2024-03-21T11:46:52Z</time>
      </trkpt>
      <trkpt lat="45.43387" lon="0.98265">
        <ele>238</ele>
        <time>2024-03-21T11:46:58Z</time>
      </trkpt>
      <trkpt lat="45.43378" lon="0.98243">
        <ele>238</ele>
        <time>2024-03-21T11:47:01Z</time>
      </trkpt>
      <trkpt lat="45.43366" lon="0.98225">
        <ele>237</ele>
        <time>2024-03-21T11:47:04Z</time>
      </trkpt>
      <trkpt lat="45.43317" lon="0.9817">
        <ele>238</ele>
        <time>2024-03-21T11:47:15Z</time>
      </trkpt>
      <trkpt lat="45.43301" lon="0.98143">
        <ele>237</ele>
        <time>2024-03-21T11:47:20Z</time>
      </trkpt>
      <trkpt lat="45.43293" lon="0.98124">
        <ele>236</ele>
        <time>2024-03-21T11:47:22Z</time>
      </trkpt>
      <trkpt lat="45.43286" lon="0.98098">
        <ele>235</ele>
        <time>2024-03-21T11:47:26Z</time>
      </trkpt>
      <trkpt lat="45.43278" lon="0.98057">
        <ele>234</ele>
        <time>2024-03-21T11:47:31Z</time>
      </trkpt>
      <trkpt lat="45.43276" lon="0.98028">
        <ele>233</ele>
        <time>2024-03-21T11:47:35Z</time>
      </trkpt>
      <trkpt lat="45.43275" lon="0.97976">
        <ele>231</ele>
        <time>2024-03-21T11:47:41Z</time>
      </trkpt>
      <trkpt lat="45.43282" lon="0.97915">
        <ele>226</ele>
        <time>2024-03-21T11:47:49Z</time>
      </trkpt>
      <trkpt lat="45.43279" lon="0.97889">
        <ele>223</ele>
        <time>2024-03-21T11:47:52Z</time>
      </trkpt>
      <trkpt lat="45.43274" lon="0.97863">
        <ele>222</ele>
        <time>2024-03-21T11:47:56Z</time>
      </trkpt>
      <trkpt lat="45.43262" lon="0.97832">
        <ele>222</ele>
        <time>2024-03-21T11:48:00Z</time>
      </trkpt>
      <trkpt lat="45.43244" lon="0.9781">
        <ele>223</ele>
        <time>2024-03-21T11:48:04Z</time>
      </trkpt>
      <trkpt lat="45.4322" lon="0.97793">
        <ele>224</ele>
        <time>2024-03-21T11:48:09Z</time>
      </trkpt>
      <trkpt lat="45.43203" lon="0.97778">
        <ele>225</ele>
        <time>2024-03-21T11:48:13Z</time>
      </trkpt>
      <trkpt lat="45.43193" lon="0.9775">
        <ele>222</ele>
        <time>2024-03-21T11:48:17Z</time>
      </trkpt>
      <trkpt lat="45.43158" lon="0.97628">
        <ele>213</ele>
        <time>2024-03-21T11:48:33Z</time>
      </trkpt>
      <trkpt lat="45.43113" lon="0.9751">
        <ele>212</ele>
        <time>2024-03-21T11:48:50Z</time>
      </trkpt>
      <trkpt lat="45.43104" lon="0.97471">
        <ele>211</ele>
        <time>2024-03-21T11:48:55Z</time>
      </trkpt>
      <trkpt lat="45.431" lon="0.9742">
        <ele>208</ele>
        <time>2024-03-21T11:49:01Z</time>
      </trkpt>
      <trkpt lat="45.43098" lon="0.97372">
        <ele>205</ele>
        <time>2024-03-21T11:49:07Z</time>
      </trkpt>
      <trkpt lat="45.43111" lon="0.97277">
        <ele>194</ele>
        <time>2024-03-21T11:49:19Z</time>
      </trkpt>
      <trkpt lat="45.43126" lon="0.97213">
        <ele>186</ele>
        <time>2024-03-21T11:49:28Z</time>
      </trkpt>
      <trkpt lat="45.43132" lon="0.97192">
        <ele>184</ele>
        <time>2024-03-21T11:49:31Z</time>
      </trkpt>
      <trkpt lat="45.43148" lon="0.97152">
        <ele>181</ele>
        <time>2024-03-21T11:49:36Z</time>
      </trkpt>
      <trkpt lat="45.43153" lon="0.97136">
        <ele>180</ele>
        <time>2024-03-21T11:49:39Z</time>
      </trkpt>
      <trkpt lat="45.43154" lon="0.97122">
        <ele>180</ele>
        <time>2024-03-21T11:49:40Z</time>
      </trkpt>
      <trkpt lat="45.43152" lon="0.97099">
        <ele>180</ele>
        <time>2024-03-21T11:49:43Z</time>
      </trkpt>
      <trkpt lat="45.43144" lon="0.97079">
        <ele>179</ele>
        <time>2024-03-21T11:49:46Z</time>
      </trkpt>
      <trkpt lat="45.43134" lon="0.97067">
        <ele>178</ele>
        <time>2024-03-21T11:49:48Z</time>
      </trkpt>
      <trkpt lat="45.43116" lon="0.97054">
        <ele>177</ele>
        <time>2024-03-21T11:49:52Z</time>
      </trkpt>
      <trkpt lat="45.43084" lon="0.97044">
        <ele>177</ele>
        <time>2024-03-21T11:49:58Z</time>
      </trkpt>
      <trkpt lat="45.43069" lon="0.97035">
        <ele>176</ele>
        <time>2024-03-21T11:50:01Z</time>
      </trkpt>
      <trkpt lat="45.43058" lon="0.97024">
        <ele>174</ele>
        <time>2024-03-21T11:50:03Z</time>
      </trkpt>
      <trkpt lat="45.43044" lon="0.96999">
        <ele>171</ele>
        <time>2024-03-21T11:50:07Z</time>
      </trkpt>
      <trkpt lat="45.43022" lon="0.96931">
        <ele>169</ele>
        <time>2024-03-21T11:50:16Z</time>
      </trkpt>
      <trkpt lat="45.43004" lon="0.96881">
        <ele>174</ele>
        <time>2024-03-21T11:50:24Z</time>
      </trkpt>
      <trkpt lat="45.4299" lon="0.96836">
        <ele>180</ele>
        <time>2024-03-21T11:50:30Z</time>
      </trkpt>
      <trkpt lat="45.4299" lon="0.96818">
        <ele>181</ele>
        <time>2024-03-21T11:50:32Z</time>
      </trkpt>
      <trkpt lat="45.43007" lon="0.96733">
        <ele>186</ele>
        <time>2024-03-21T11:50:43Z</time>
      </trkpt>
      <trkpt lat="45.43007" lon="0.96713">
        <ele>187</ele>
        <time>2024-03-21T11:50:45Z</time>
      </trkpt>
      <trkpt lat="45.43003" lon="0.96692">
        <ele>187</ele>
        <time>2024-03-21T11:50:48Z</time>
      </trkpt>
      <trkpt lat="45.42966" lon="0.96608">
        <ele>193</ele>
        <time>2024-03-21T11:51:01Z</time>
      </trkpt>
      <trkpt lat="45.42939" lon="0.96552">
        <ele>195</ele>
        <time>2024-03-21T11:51:09Z</time>
      </trkpt>
      <trkpt lat="45.42934" lon="0.96535">
        <ele>196</ele>
        <time>2024-03-21T11:51:11Z</time>
      </trkpt>
      <trkpt lat="45.42933" lon="0.96518">
        <ele>197</ele>
        <time>2024-03-21T11:51:13Z</time>
      </trkpt>
      <trkpt lat="45.42935" lon="0.965">
        <ele>198</ele>
        <time>2024-03-21T11:51:16Z</time>
      </trkpt>
      <trkpt lat="45.42949" lon="0.96427">
        <ele>203</ele>
        <time>2024-03-21T11:51:25Z</time>
      </trkpt>
      <trkpt lat="45.42953" lon="0.96397">
        <ele>204</ele>
        <time>2024-03-21T11:51:29Z</time>
      </trkpt>
      <trkpt lat="45.42949" lon="0.96379">
        <ele>204</ele>
        <time>2024-03-21T11:51:31Z</time>
      </trkpt>
      <trkpt lat="45.42935" lon="0.96342">
        <ele>203</ele>
        <time>2024-03-21T11:51:37Z</time>
      </trkpt>
      <trkpt lat="45.42932" lon="0.96327">
        <ele>202</ele>
        <time>2024-03-21T11:51:39Z</time>
      </trkpt>
      <trkpt lat="45.42928" lon="0.96257">
        <ele>201</ele>
        <time>2024-03-21T11:51:47Z</time>
      </trkpt>
      <trkpt lat="45.42923" lon="0.96241">
        <ele>202</ele>
        <time>2024-03-21T11:51:50Z</time>
      </trkpt>
      <trkpt lat="45.42891" lon="0.96186">
        <ele>210</ele>
        <time>2024-03-21T11:51:58Z</time>
      </trkpt>
      <trkpt lat="45.42869" lon="0.96143">
        <ele>211</ele>
        <time>2024-03-21T11:52:05Z</time>
      </trkpt>
      <trkpt lat="45.42855" lon="0.96109">
        <ele>209</ele>
        <time>2024-03-21T11:52:10Z</time>
      </trkpt>
      <trkpt lat="45.42846" lon="0.96079">
        <ele>207</ele>
        <time>2024-03-21T11:52:14Z</time>
      </trkpt>
      <trkpt lat="45.42841" lon="0.96058">
        <ele>208</ele>
        <time>2024-03-21T11:52:17Z</time>
      </trkpt>
      <trkpt lat="45.4284" lon="0.96025">
        <ele>209</ele>
        <time>2024-03-21T11:52:21Z</time>
      </trkpt>
      <trkpt lat="45.42852" lon="0.95913">
        <ele>216</ele>
        <time>2024-03-21T11:52:35Z</time>
      </trkpt>
      <trkpt lat="45.42851" lon="0.95861">
        <ele>216</ele>
        <time>2024-03-21T11:52:42Z</time>
      </trkpt>
      <trkpt lat="45.42851" lon="0.95837">
        <ele>216</ele>
        <time>2024-03-21T11:52:45Z</time>
      </trkpt>
      <trkpt lat="45.42854" lon="0.95811">
        <ele>217</ele>
        <time>2024-03-21T11:52:48Z</time>
      </trkpt>
      <trkpt lat="45.42862" lon="0.95783">
        <ele>218</ele>
        <time>2024-03-21T11:52:52Z</time>
      </trkpt>
      <trkpt lat="45.42872" lon="0.95759">
        <ele>218</ele>
        <time>2024-03-21T11:52:55Z</time>
      </trkpt>
      <trkpt lat="45.42881" lon="0.9573">
        <ele>218</ele>
        <time>2024-03-21T11:52:59Z</time>
      </trkpt>
      <trkpt lat="45.42894" lon="0.95664">
        <ele>218</ele>
        <time>2024-03-21T11:53:08Z</time>
      </trkpt>
      <trkpt lat="45.42897" lon="0.95618">
        <ele>219</ele>
        <time>2024-03-21T11:53:13Z</time>
      </trkpt>
      <trkpt lat="45.42886" lon="0.95555">
        <ele>223</ele>
        <time>2024-03-21T11:53:22Z</time>
      </trkpt>
      <trkpt lat="45.42887" lon="0.95532">
        <ele>225</ele>
        <time>2024-03-21T11:53:24Z</time>
      </trkpt>
      <trkpt lat="45.42891" lon="0.9552">
        <ele>225</ele>
        <time>2024-03-21T11:53:26Z</time>
      </trkpt>
      <trkpt lat="45.42916" lon="0.95479">
        <ele>225</ele>
        <time>2024-03-21T11:53:33Z</time>
      </trkpt>
      <trkpt lat="45.42928" lon="0.95455">
        <ele>229</ele>
        <time>2024-03-21T11:53:37Z</time>
      </trkpt>
      <trkpt lat="45.42947" lon="0.95395">
        <ele>232</ele>
        <time>2024-03-21T11:53:45Z</time>
      </trkpt>
      <trkpt lat="45.42955" lon="0.95363">
        <ele>231</ele>
        <time>2024-03-21T11:53:49Z</time>
      </trkpt>
      <trkpt lat="45.42956" lon="0.95333">
        <ele>231</ele>
        <time>2024-03-21T11:53:53Z</time>
      </trkpt>
      <trkpt lat="45.42951" lon="0.95308">
        <ele>231</ele>
        <time>2024-03-21T11:53:56Z</time>
      </trkpt>
      <trkpt lat="45.42939" lon="0.95278">
        <ele>232</ele>
        <time>2024-03-21T11:54:00Z</time>
      </trkpt>
      <trkpt lat="45.42925" lon="0.9526">
        <ele>232</ele>
        <time>2024-03-21T11:54:04Z</time>
      </trkpt>
      <trkpt lat="45.42886" lon="0.95239">
        <ele>238</ele>
        <time>2024-03-21T11:54:11Z</time>
      </trkpt>
      <trkpt lat="45.42871" lon="0.95227">
        <ele>241</ele>
        <time>2024-03-21T11:54:14Z</time>
      </trkpt>
      <trkpt lat="45.4286" lon="0.95216">
        <ele>242</ele>
        <time>2024-03-21T11:54:17Z</time>
      </trkpt>
      <trkpt lat="45.42849" lon="0.95198">
        <ele>244</ele>
        <time>2024-03-21T11:54:20Z</time>
      </trkpt>
      <trkpt lat="45.42787" lon="0.95082">
        <ele>246</ele>
        <time>2024-03-21T11:54:38Z</time>
      </trkpt>
      <trkpt lat="45.42779" lon="0.95073">
        <ele>246</ele>
        <time>2024-03-21T11:54:40Z</time>
      </trkpt>
      <trkpt lat="45.4277" lon="0.95066">
        <ele>247</ele>
        <time>2024-03-21T11:54:41Z</time>
      </trkpt>
      <trkpt lat="45.42679" lon="0.95018">
        <ele>245</ele>
        <time>2024-03-21T11:54:59Z</time>
      </trkpt>
      <trkpt lat="45.42658" lon="0.9501">
        <ele>245</ele>
        <time>2024-03-21T11:55:03Z</time>
      </trkpt>
      <trkpt lat="45.4262" lon="0.94985">
        <ele>245</ele>
        <time>2024-03-21T11:55:10Z</time>
      </trkpt>
      <trkpt lat="45.42602" lon="0.94967">
        <ele>246</ele>
        <time>2024-03-21T11:55:14Z</time>
      </trkpt>
      <trkpt lat="45.42561" lon="0.9491">
        <ele>245</ele>
        <time>2024-03-21T11:55:24Z</time>
      </trkpt>
      <trkpt lat="45.42527" lon="0.94849">
        <ele>245</ele>
        <time>2024-03-21T11:55:34Z</time>
      </trkpt>
      <trkpt lat="45.42515" lon="0.94821">
        <ele>245</ele>
        <time>2024-03-21T11:55:38Z</time>
      </trkpt>
      <trkpt lat="45.42505" lon="0.94786">
        <ele>247</ele>
        <time>2024-03-21T11:55:43Z</time>
      </trkpt>
      <trkpt lat="45.42499" lon="0.94751">
        <ele>248</ele>
        <time>2024-03-21T11:55:47Z</time>
      </trkpt>
      <trkpt lat="45.42495" lon="0.94705">
        <ele>249</ele>
        <time>2024-03-21T11:55:53Z</time>
      </trkpt>
      <trkpt lat="45.42494" lon="0.94665">
        <ele>249</ele>
        <time>2024-03-21T11:55:58Z</time>
      </trkpt>
      <trkpt lat="45.42501" lon="0.9452">
        <ele>253</ele>
        <time>2024-03-21T11:56:16Z</time>
      </trkpt>
      <trkpt lat="45.42499" lon="0.94496">
        <ele>254</ele>
        <time>2024-03-21T11:56:19Z</time>
      </trkpt>
      <trkpt lat="45.42495" lon="0.94469">
        <ele>254</ele>
        <time>2024-03-21T11:56:22Z</time>
      </trkpt>
      <trkpt lat="45.42487" lon="0.94451">
        <ele>254</ele>
        <time>2024-03-21T11:56:25Z</time>
      </trkpt>
      <trkpt lat="45.4241" lon="0.94319">
        <ele>256</ele>
        <time>2024-03-21T11:56:47Z</time>
      </trkpt>
      <trkpt lat="45.42388" lon="0.94278">
        <ele>257</ele>
        <time>2024-03-21T11:56:53Z</time>
      </trkpt>
      <trkpt lat="45.42377" lon="0.94248">
        <ele>258</ele>
        <time>2024-03-21T11:56:57Z</time>
      </trkpt>
      <trkpt lat="45.42341" lon="0.9401">
        <ele>264</ele>
        <time>2024-03-21T11:57:28Z</time>
      </trkpt>
      <trkpt lat="45.42338" lon="0.93965">
        <ele>265</ele>
        <time>2024-03-21T11:57:33Z</time>
      </trkpt>
      <trkpt lat="45.42346" lon="0.93895">
        <ele>268</ele>
        <time>2024-03-21T11:57:42Z</time>
      </trkpt>
      <trkpt lat="45.42349" lon="0.93821">
        <ele>271</ele>
        <time>2024-03-21T11:57:51Z</time>
      </trkpt>
      <trkpt lat="45.42348" lon="0.93792">
        <ele>271</ele>
        <time>2024-03-21T11:57:55Z</time>
      </trkpt>
      <trkpt lat="45.42344" lon="0.93758">
        <ele>272</ele>
        <time>2024-03-21T11:57:59Z</time>
      </trkpt>
      <trkpt lat="45.42328" lon="0.93667">
        <ele>271</ele>
        <time>2024-03-21T11:58:11Z</time>
      </trkpt>
      <trkpt lat="45.42319" lon="0.93641">
        <ele>270</ele>
        <time>2024-03-21T11:58:15Z</time>
      </trkpt>
      <trkpt lat="45.42309" lon="0.93617">
        <ele>270</ele>
        <time>2024-03-21T11:58:18Z</time>
      </trkpt>
      <trkpt lat="45.42298" lon="0.93596">
        <ele>269</ele>
        <time>2024-03-21T11:58:21Z</time>
      </trkpt>
      <trkpt lat="45.42282" lon="0.93571">
        <ele>269</ele>
        <time>2024-03-21T11:58:26Z</time>
      </trkpt>
      <trkpt lat="45.42225" lon="0.93503">
        <ele>266</ele>
        <time>2024-03-21T11:58:39Z</time>
      </trkpt>
      <trkpt lat="45.42208" lon="0.9348">
        <ele>266</ele>
        <time>2024-03-21T11:58:43Z</time>
      </trkpt>
      <trkpt lat="45.42191" lon="0.93451">
        <ele>265</ele>
        <time>2024-03-21T11:58:48Z</time>
      </trkpt>
      <trkpt lat="45.42172" lon="0.93404">
        <ele>265</ele>
        <time>2024-03-21T11:58:55Z</time>
      </trkpt>
      <trkpt lat="45.42153" lon="0.93336">
        <ele>264</ele>
        <time>2024-03-21T11:59:04Z</time>
      </trkpt>
      <trkpt lat="45.42089" lon="0.93131">
        <ele>264</ele>
        <time>2024-03-21T11:59:32Z</time>
      </trkpt>
      <trkpt lat="45.42084" lon="0.931">
        <ele>265</ele>
        <time>2024-03-21T11:59:36Z</time>
      </trkpt>
      <trkpt lat="45.42089" lon="0.92933">
        <ele>269</ele>
        <time>2024-03-21T11:59:57Z</time>
      </trkpt>
      <trkpt lat="45.42095" lon="0.92818">
        <ele>272</ele>
        <time>2024-03-21T12:00:11Z</time>
      </trkpt>
      <trkpt lat="45.42095" lon="0.92748">
        <ele>273</ele>
        <time>2024-03-21T12:00:20Z</time>
      </trkpt>
      <trkpt lat="45.42091" lon="0.92678">
        <ele>272</ele>
        <time>2024-03-21T12:00:28Z</time>
      </trkpt>
      <trkpt lat="45.42088" lon="0.9264">
        <ele>270</ele>
        <time>2024-03-21T12:00:33Z</time>
      </trkpt>
      <trkpt lat="45.42081" lon="0.92605">
        <ele>267</ele>
        <time>2024-03-21T12:00:38Z</time>
      </trkpt>
      <trkpt lat="45.42065" lon="0.92562">
        <ele>263</ele>
        <time>2024-03-21T12:00:44Z</time>
      </trkpt>
      <trkpt lat="45.42016" lon="0.92442">
        <ele>256</ele>
        <time>2024-03-21T12:01:01Z</time>
      </trkpt>
      <trkpt lat="45.41958" lon="0.92307">
        <ele>252</ele>
        <time>2024-03-21T12:01:21Z</time>
      </trkpt>
      <trkpt lat="45.41963" lon="0.92299">
        <ele>252</ele>
        <time>2024-03-21T12:01:22Z</time>
      </trkpt>
      <trkpt lat="45.41963" lon="0.92285">
        <ele>251</ele>
        <time>2024-03-21T12:01:24Z</time>
      </trkpt>
      <trkpt lat="45.41958" lon="0.92275">
        <ele>251</ele>
        <time>2024-03-21T12:01:26Z</time>
      </trkpt>
      <trkpt lat="45.41949" lon="0.92272">
        <ele>251</ele>
        <time>2024-03-21T12:01:27Z</time>
      </trkpt>
      <trkpt lat="45.41941" lon="0.92276">
        <ele>251</ele>
        <time>2024-03-21T12:01:29Z</time>
      </trkpt>
      <trkpt lat="45.41938" lon="0.92283">
        <ele>251</ele>
        <time>2024-03-21T12:01:30Z</time>
      </trkpt>
      <trkpt lat="45.41922" lon="0.9229">
        <ele>250</ele>
        <time>2024-03-21T12:01:33Z</time>
      </trkpt>
      <trkpt lat="45.41917" lon="0.92289">
        <ele>250</ele>
        <time>2024-03-21T12:01:34Z</time>
      </trkpt>
    </trkseg>
  </trk>
</gpx>